<?xml version="1.0" encoding="UTF-8" standalone="no" ?>
<gpx xmlns="http://www.topografix.com/GPX/1/1" creator="www.plotaroute.com" version="1.1"  xmlns:xsi="http://www.w3.org/2001/XMLSchema-instance" xsi:schemaLocation="http://www.topografix.com/GPX/1/1 http://www.topografix.com/GPX/1/1/gpx.xsd">
<metadata>
<desc>Route created on plotaroute.com</desc>
</metadata>
<trk>
<name>ZOO-Kennedy40km.</name>
<trkseg>
<trkpt lat="31.758289" lon="35.089477">
<ele>423</ele>
<time>2020-12-02T00:00:00Z</time></trkpt>
<trkpt lat="31.758289" lon="35.089477">
<ele>423</ele>
<time>2020-12-02T00:00:00Z</time></trkpt>
<trkpt lat="31.758256" lon="35.08956">
<ele>423</ele>
<time>2020-12-02T00:00:02Z</time></trkpt>
<trkpt lat="31.758205" lon="35.089584">
<ele>424</ele>
<time>2020-12-02T00:00:03Z</time></trkpt>
<trkpt lat="31.758133" lon="35.089554">
<ele>425</ele>
<time>2020-12-02T00:00:04Z</time></trkpt>
<trkpt lat="31.75818" lon="35.089245">
<ele>422</ele>
<time>2020-12-02T00:00:10Z</time></trkpt>
<trkpt lat="31.75802" lon="35.08923">
<ele>423</ele>
<time>2020-12-02T00:00:13Z</time></trkpt>
<trkpt lat="31.757716" lon="35.089281">
<ele>426</ele>
<time>2020-12-02T00:00:19Z</time></trkpt>
<trkpt lat="31.757556" lon="35.089334">
<ele>428</ele>
<time>2020-12-02T00:00:22Z</time></trkpt>
<trkpt lat="31.757468" lon="35.089383">
<ele>429</ele>
<time>2020-12-02T00:00:24Z</time></trkpt>
<trkpt lat="31.757245" lon="35.089553">
<ele>434</ele>
<time>2020-12-02T00:00:30Z</time></trkpt>
<trkpt lat="31.757181" lon="35.089585">
<ele>435</ele>
<time>2020-12-02T00:00:31Z</time></trkpt>
<trkpt lat="31.757046" lon="35.089625">
<ele>437</ele>
<time>2020-12-02T00:00:34Z</time></trkpt>
<trkpt lat="31.756691" lon="35.089636">
<ele>440</ele>
<time>2020-12-02T00:00:41Z</time></trkpt>
<trkpt lat="31.75657" lon="35.089609">
<ele>441</ele>
<time>2020-12-02T00:00:43Z</time></trkpt>
<trkpt lat="31.756373" lon="35.089519">
<ele>441</ele>
<time>2020-12-02T00:00:48Z</time></trkpt>
<trkpt lat="31.756078" lon="35.089283">
<ele>437</ele>
<time>2020-12-02T00:00:55Z</time></trkpt>
<trkpt lat="31.755853" lon="35.089078">
<ele>436</ele>
<time>2020-12-02T00:01:00Z</time></trkpt>
<trkpt lat="31.755853" lon="35.089078">
<ele>436</ele>
<time>2020-12-02T00:01:00Z</time></trkpt>
<trkpt lat="31.755735" lon="35.088993">
<ele>439</ele>
<time>2020-12-02T00:01:03Z</time></trkpt>
<trkpt lat="31.755642" lon="35.088974">
<ele>440</ele>
<time>2020-12-02T00:01:05Z</time></trkpt>
<trkpt lat="31.755316" lon="35.08901">
<ele>442</ele>
<time>2020-12-02T00:01:12Z</time></trkpt>
<trkpt lat="31.755212" lon="35.088985">
<ele>443</ele>
<time>2020-12-02T00:01:14Z</time></trkpt>
<trkpt lat="31.75484" lon="35.088819">
<ele>447</ele>
<time>2020-12-02T00:01:22Z</time></trkpt>
<trkpt lat="31.754429" lon="35.088594">
<ele>451</ele>
<time>2020-12-02T00:01:31Z</time></trkpt>
<trkpt lat="31.754281" lon="35.088461">
<ele>449</ele>
<time>2020-12-02T00:01:35Z</time></trkpt>
<trkpt lat="31.754102" lon="35.088216">
<ele>447</ele>
<time>2020-12-02T00:01:40Z</time></trkpt>
<trkpt lat="31.753982" lon="35.087986">
<ele>451</ele>
<time>2020-12-02T00:01:45Z</time></trkpt>
<trkpt lat="31.753894" lon="35.087735">
<ele>450</ele>
<time>2020-12-02T00:01:49Z</time></trkpt>
<trkpt lat="31.753762" lon="35.087104">
<ele>450</ele>
<time>2020-12-02T00:02:00Z</time></trkpt>
<trkpt lat="31.753718" lon="35.086819">
<ele>450</ele>
<time>2020-12-02T00:02:05Z</time></trkpt>
<trkpt lat="31.753524" lon="35.086083">
<ele>447</ele>
<time>2020-12-02T00:02:18Z</time></trkpt>
<trkpt lat="31.753524" lon="35.086083">
<ele>447</ele>
<time>2020-12-02T00:02:18Z</time></trkpt>
<trkpt lat="31.753453" lon="35.085922">
<ele>445</ele>
<time>2020-12-02T00:02:21Z</time></trkpt>
<trkpt lat="31.753346" lon="35.085783">
<ele>443</ele>
<time>2020-12-02T00:02:25Z</time></trkpt>
<trkpt lat="31.753258" lon="35.08571">
<ele>445</ele>
<time>2020-12-02T00:02:27Z</time></trkpt>
<trkpt lat="31.753137" lon="35.085645">
<ele>447</ele>
<time>2020-12-02T00:02:29Z</time></trkpt>
<trkpt lat="31.752884" lon="35.085595">
<ele>448</ele>
<time>2020-12-02T00:02:35Z</time></trkpt>
<trkpt lat="31.752201" lon="35.085596">
<ele>449</ele>
<time>2020-12-02T00:02:48Z</time></trkpt>
<trkpt lat="31.751849" lon="35.08564">
<ele>451</ele>
<time>2020-12-02T00:02:55Z</time></trkpt>
<trkpt lat="31.751669" lon="35.085639">
<ele>452</ele>
<time>2020-12-02T00:02:59Z</time></trkpt>
<trkpt lat="31.750635" lon="35.085539">
<ele>448</ele>
<time>2020-12-02T00:03:20Z</time></trkpt>
<trkpt lat="31.750515" lon="35.085555">
<ele>448</ele>
<time>2020-12-02T00:03:22Z</time></trkpt>
<trkpt lat="31.750425" lon="35.085599">
<ele>448</ele>
<time>2020-12-02T00:03:24Z</time></trkpt>
<trkpt lat="31.750255" lon="35.085733">
<ele>447</ele>
<time>2020-12-02T00:03:28Z</time></trkpt>
<trkpt lat="31.749899" lon="35.086059">
<ele>445</ele>
<time>2020-12-02T00:03:37Z</time></trkpt>
<trkpt lat="31.749827" lon="35.086149">
<ele>445</ele>
<time>2020-12-02T00:03:39Z</time></trkpt>
<trkpt lat="31.749762" lon="35.086297">
<ele>445</ele>
<time>2020-12-02T00:03:42Z</time></trkpt>
<trkpt lat="31.749744" lon="35.086439">
<ele>445</ele>
<time>2020-12-02T00:03:45Z</time></trkpt>
<trkpt lat="31.749758" lon="35.086531">
<ele>446</ele>
<time>2020-12-02T00:03:46Z</time></trkpt>
<trkpt lat="31.749818" lon="35.086694">
<ele>446</ele>
<time>2020-12-02T00:03:49Z</time></trkpt>
<trkpt lat="31.750053" lon="35.087123">
<ele>446</ele>
<time>2020-12-02T00:03:58Z</time></trkpt>
<trkpt lat="31.750256" lon="35.087572">
<ele>448</ele>
<time>2020-12-02T00:04:07Z</time></trkpt>
<trkpt lat="31.750256" lon="35.087572">
<ele>448</ele>
<time>2020-12-02T00:04:07Z</time></trkpt>
<trkpt lat="31.7505" lon="35.087997">
<ele>451</ele>
<time>2020-12-02T00:04:15Z</time></trkpt>
<trkpt lat="31.750594" lon="35.088137">
<ele>451</ele>
<time>2020-12-02T00:04:18Z</time></trkpt>
<trkpt lat="31.750748" lon="35.088323">
<ele>452</ele>
<time>2020-12-02T00:04:23Z</time></trkpt>
<trkpt lat="31.750809" lon="35.088425">
<ele>453</ele>
<time>2020-12-02T00:04:25Z</time></trkpt>
<trkpt lat="31.750833" lon="35.088502">
<ele>453</ele>
<time>2020-12-02T00:04:26Z</time></trkpt>
<trkpt lat="31.750863" lon="35.088812">
<ele>454</ele>
<time>2020-12-02T00:04:32Z</time></trkpt>
<trkpt lat="31.750862" lon="35.088997">
<ele>454</ele>
<time>2020-12-02T00:04:35Z</time></trkpt>
<trkpt lat="31.750844" lon="35.089216">
<ele>454</ele>
<time>2020-12-02T00:04:39Z</time></trkpt>
<trkpt lat="31.750804" lon="35.08945">
<ele>454</ele>
<time>2020-12-02T00:04:43Z</time></trkpt>
<trkpt lat="31.750753" lon="35.089626">
<ele>454</ele>
<time>2020-12-02T00:04:46Z</time></trkpt>
<trkpt lat="31.750566" lon="35.089982">
<ele>455</ele>
<time>2020-12-02T00:04:53Z</time></trkpt>
<trkpt lat="31.750513" lon="35.090146">
<ele>455</ele>
<time>2020-12-02T00:04:56Z</time></trkpt>
<trkpt lat="31.750474" lon="35.090411">
<ele>456</ele>
<time>2020-12-02T00:05:01Z</time></trkpt>
<trkpt lat="31.750488" lon="35.090735">
<ele>457</ele>
<time>2020-12-02T00:05:06Z</time></trkpt>
<trkpt lat="31.750568" lon="35.091277">
<ele>459</ele>
<time>2020-12-02T00:05:15Z</time></trkpt>
<trkpt lat="31.750615" lon="35.091487">
<ele>460</ele>
<time>2020-12-02T00:05:19Z</time></trkpt>
<trkpt lat="31.750713" lon="35.09172">
<ele>460</ele>
<time>2020-12-02T00:05:24Z</time></trkpt>
<trkpt lat="31.750934" lon="35.092059">
<ele>465</ele>
<time>2020-12-02T00:05:31Z</time></trkpt>
<trkpt lat="31.750984" lon="35.092223">
<ele>469</ele>
<time>2020-12-02T00:05:34Z</time></trkpt>
<trkpt lat="31.750986" lon="35.092487">
<ele>469</ele>
<time>2020-12-02T00:05:38Z</time></trkpt>
<trkpt lat="31.750969" lon="35.092663">
<ele>471</ele>
<time>2020-12-02T00:05:41Z</time></trkpt>
<trkpt lat="31.750902" lon="35.092926">
<ele>471</ele>
<time>2020-12-02T00:05:46Z</time></trkpt>
<trkpt lat="31.750902" lon="35.092926">
<ele>471</ele>
<time>2020-12-02T00:05:46Z</time></trkpt>
<trkpt lat="31.750872" lon="35.093005">
<ele>471</ele>
<time>2020-12-02T00:05:48Z</time></trkpt>
<trkpt lat="31.750783" lon="35.093133">
<ele>470</ele>
<time>2020-12-02T00:05:50Z</time></trkpt>
<trkpt lat="31.750599" lon="35.093255">
<ele>469</ele>
<time>2020-12-02T00:05:55Z</time></trkpt>
<trkpt lat="31.750464" lon="35.093302">
<ele>468</ele>
<time>2020-12-02T00:05:57Z</time></trkpt>
<trkpt lat="31.75001" lon="35.093377">
<ele>463</ele>
<time>2020-12-02T00:06:07Z</time></trkpt>
<trkpt lat="31.749771" lon="35.093441">
<ele>465</ele>
<time>2020-12-02T00:06:11Z</time></trkpt>
<trkpt lat="31.749292" lon="35.093623">
<ele>470</ele>
<time>2020-12-02T00:06:22Z</time></trkpt>
<trkpt lat="31.749062" lon="35.093648">
<ele>471</ele>
<time>2020-12-02T00:06:26Z</time></trkpt>
<trkpt lat="31.748203" lon="35.094103">
<ele>472</ele>
<time>2020-12-02T00:06:45Z</time></trkpt>
<trkpt lat="31.747749" lon="35.094463">
<ele>478</ele>
<time>2020-12-02T00:06:56Z</time></trkpt>
<trkpt lat="31.747524" lon="35.094576">
<ele>479</ele>
<time>2020-12-02T00:07:01Z</time></trkpt>
<trkpt lat="31.747376" lon="35.09461">
<ele>480</ele>
<time>2020-12-02T00:07:04Z</time></trkpt>
<trkpt lat="31.747243" lon="35.094617">
<ele>480</ele>
<time>2020-12-02T00:07:07Z</time></trkpt>
<trkpt lat="31.747137" lon="35.094602">
<ele>479</ele>
<time>2020-12-02T00:07:09Z</time></trkpt>
<trkpt lat="31.74701" lon="35.094558">
<ele>478</ele>
<time>2020-12-02T00:07:11Z</time></trkpt>
<trkpt lat="31.746869" lon="35.094474">
<ele>475</ele>
<time>2020-12-02T00:07:15Z</time></trkpt>
<trkpt lat="31.746784" lon="35.0944">
<ele>472</ele>
<time>2020-12-02T00:07:17Z</time></trkpt>
<trkpt lat="31.746629" lon="35.094171">
<ele>466</ele>
<time>2020-12-02T00:07:22Z</time></trkpt>
<trkpt lat="31.746629" lon="35.094171">
<ele>466</ele>
<time>2020-12-02T00:07:22Z</time></trkpt>
<trkpt lat="31.746603" lon="35.094109">
<ele>466</ele>
<time>2020-12-02T00:07:23Z</time></trkpt>
<trkpt lat="31.746564" lon="35.093824">
<ele>466</ele>
<time>2020-12-02T00:07:28Z</time></trkpt>
<trkpt lat="31.746513" lon="35.093734">
<ele>466</ele>
<time>2020-12-02T00:07:30Z</time></trkpt>
<trkpt lat="31.746461" lon="35.093698">
<ele>466</ele>
<time>2020-12-02T00:07:31Z</time></trkpt>
<trkpt lat="31.746375" lon="35.093675">
<ele>467</ele>
<time>2020-12-02T00:07:33Z</time></trkpt>
<trkpt lat="31.746278" lon="35.093681">
<ele>467</ele>
<time>2020-12-02T00:07:35Z</time></trkpt>
<trkpt lat="31.746115" lon="35.093733">
<ele>469</ele>
<time>2020-12-02T00:07:38Z</time></trkpt>
<trkpt lat="31.745702" lon="35.093933">
<ele>473</ele>
<time>2020-12-02T00:07:47Z</time></trkpt>
<trkpt lat="31.745563" lon="35.093953">
<ele>474</ele>
<time>2020-12-02T00:07:50Z</time></trkpt>
<trkpt lat="31.745222" lon="35.093953">
<ele>475</ele>
<time>2020-12-02T00:07:57Z</time></trkpt>
<trkpt lat="31.745117" lon="35.093972">
<ele>475</ele>
<time>2020-12-02T00:07:59Z</time></trkpt>
<trkpt lat="31.744705" lon="35.09412">
<ele>473</ele>
<time>2020-12-02T00:08:07Z</time></trkpt>
<trkpt lat="31.744363" lon="35.094276">
<ele>474</ele>
<time>2020-12-02T00:08:15Z</time></trkpt>
<trkpt lat="31.74423" lon="35.09432">
<ele>474</ele>
<time>2020-12-02T00:08:17Z</time></trkpt>
<trkpt lat="31.744106" lon="35.09441">
<ele>474</ele>
<time>2020-12-02T00:08:20Z</time></trkpt>
<trkpt lat="31.744028" lon="35.094524">
<ele>475</ele>
<time>2020-12-02T00:08:23Z</time></trkpt>
<trkpt lat="31.743868" lon="35.094825">
<ele>477</ele>
<time>2020-12-02T00:08:29Z</time></trkpt>
<trkpt lat="31.743601" lon="35.095036">
<ele>476</ele>
<time>2020-12-02T00:08:35Z</time></trkpt>
<trkpt lat="31.743375" lon="35.095132">
<ele>477</ele>
<time>2020-12-02T00:08:40Z</time></trkpt>
<trkpt lat="31.743288" lon="35.095153">
<ele>477</ele>
<time>2020-12-02T00:08:42Z</time></trkpt>
<trkpt lat="31.74311" lon="35.09516">
<ele>476</ele>
<time>2020-12-02T00:08:45Z</time></trkpt>
<trkpt lat="31.742953" lon="35.095126">
<ele>475</ele>
<time>2020-12-02T00:08:49Z</time></trkpt>
<trkpt lat="31.742559" lon="35.094979">
<ele>471</ele>
<time>2020-12-02T00:08:57Z</time></trkpt>
<trkpt lat="31.742273" lon="35.094921">
<ele>472</ele>
<time>2020-12-02T00:09:03Z</time></trkpt>
<trkpt lat="31.742176" lon="35.094925">
<ele>472</ele>
<time>2020-12-02T00:09:05Z</time></trkpt>
<trkpt lat="31.741995" lon="35.094975">
<ele>472</ele>
<time>2020-12-02T00:09:08Z</time></trkpt>
<trkpt lat="31.741895" lon="35.095043">
<ele>472</ele>
<time>2020-12-02T00:09:11Z</time></trkpt>
<trkpt lat="31.741778" lon="35.095157">
<ele>472</ele>
<time>2020-12-02T00:09:14Z</time></trkpt>
<trkpt lat="31.741656" lon="35.095312">
<ele>472</ele>
<time>2020-12-02T00:09:17Z</time></trkpt>
<trkpt lat="31.741588" lon="35.095427">
<ele>473</ele>
<time>2020-12-02T00:09:20Z</time></trkpt>
<trkpt lat="31.741588" lon="35.095427">
<ele>473</ele>
<time>2020-12-02T00:09:20Z</time></trkpt>
<trkpt lat="31.741473" lon="35.095674">
<ele>473</ele>
<time>2020-12-02T00:09:25Z</time></trkpt>
<trkpt lat="31.741366" lon="35.096026">
<ele>474</ele>
<time>2020-12-02T00:09:31Z</time></trkpt>
<trkpt lat="31.741351" lon="35.096202">
<ele>475</ele>
<time>2020-12-02T00:09:34Z</time></trkpt>
<trkpt lat="31.741418" lon="35.096614">
<ele>477</ele>
<time>2020-12-02T00:09:41Z</time></trkpt>
<trkpt lat="31.741438" lon="35.096896">
<ele>477</ele>
<time>2020-12-02T00:09:46Z</time></trkpt>
<trkpt lat="31.741659" lon="35.097722">
<ele>477</ele>
<time>2020-12-02T00:10:01Z</time></trkpt>
<trkpt lat="31.741837" lon="35.098086">
<ele>479</ele>
<time>2020-12-02T00:10:08Z</time></trkpt>
<trkpt lat="31.742037" lon="35.098397">
<ele>481</ele>
<time>2020-12-02T00:10:14Z</time></trkpt>
<trkpt lat="31.742414" lon="35.098872">
<ele>482</ele>
<time>2020-12-02T00:10:26Z</time></trkpt>
<trkpt lat="31.743022" lon="35.099955">
<ele>494</ele>
<time>2020-12-02T00:10:48Z</time></trkpt>
<trkpt lat="31.743072" lon="35.100078">
<ele>494</ele>
<time>2020-12-02T00:10:50Z</time></trkpt>
<trkpt lat="31.74311" lon="35.100229">
<ele>494</ele>
<time>2020-12-02T00:10:53Z</time></trkpt>
<trkpt lat="31.743166" lon="35.100579">
<ele>492</ele>
<time>2020-12-02T00:10:59Z</time></trkpt>
<trkpt lat="31.743174" lon="35.10083">
<ele>490</ele>
<time>2020-12-02T00:11:03Z</time></trkpt>
<trkpt lat="31.743156" lon="35.101204">
<ele>490</ele>
<time>2020-12-02T00:11:09Z</time></trkpt>
<trkpt lat="31.743155" lon="35.101974">
<ele>490</ele>
<time>2020-12-02T00:11:23Z</time></trkpt>
<trkpt lat="31.743132" lon="35.102465">
<ele>490</ele>
<time>2020-12-02T00:11:31Z</time></trkpt>
<trkpt lat="31.743132" lon="35.102465">
<ele>490</ele>
<time>2020-12-02T00:11:31Z</time></trkpt>
<trkpt lat="31.743129" lon="35.102535">
<ele>490</ele>
<time>2020-12-02T00:11:32Z</time></trkpt>
<trkpt lat="31.742805" lon="35.103551">
<ele>489</ele>
<time>2020-12-02T00:11:51Z</time></trkpt>
<trkpt lat="31.742768" lon="35.103703">
<ele>489</ele>
<time>2020-12-02T00:11:53Z</time></trkpt>
<trkpt lat="31.742753" lon="35.103879">
<ele>488</ele>
<time>2020-12-02T00:11:56Z</time></trkpt>
<trkpt lat="31.742792" lon="35.10419">
<ele>488</ele>
<time>2020-12-02T00:12:02Z</time></trkpt>
<trkpt lat="31.742824" lon="35.104331">
<ele>488</ele>
<time>2020-12-02T00:12:04Z</time></trkpt>
<trkpt lat="31.742921" lon="35.104537">
<ele>489</ele>
<time>2020-12-02T00:12:08Z</time></trkpt>
<trkpt lat="31.742964" lon="35.104696">
<ele>490</ele>
<time>2020-12-02T00:12:11Z</time></trkpt>
<trkpt lat="31.742952" lon="35.104778">
<ele>490</ele>
<time>2020-12-02T00:12:12Z</time></trkpt>
<trkpt lat="31.742593" lon="35.105876">
<ele>494</ele>
<time>2020-12-02T00:12:32Z</time></trkpt>
<trkpt lat="31.742544" lon="35.106067">
<ele>496</ele>
<time>2020-12-02T00:12:36Z</time></trkpt>
<trkpt lat="31.742454" lon="35.106264">
<ele>498</ele>
<time>2020-12-02T00:12:40Z</time></trkpt>
<trkpt lat="31.742454" lon="35.106264">
<ele>498</ele>
<time>2020-12-02T00:12:40Z</time></trkpt>
<trkpt lat="31.742378" lon="35.106357">
<ele>498</ele>
<time>2020-12-02T00:12:42Z</time></trkpt>
<trkpt lat="31.742258" lon="35.106427">
<ele>498</ele>
<time>2020-12-02T00:12:45Z</time></trkpt>
<trkpt lat="31.74148" lon="35.106732">
<ele>491</ele>
<time>2020-12-02T00:13:01Z</time></trkpt>
<trkpt lat="31.741376" lon="35.10683">
<ele>493</ele>
<time>2020-12-02T00:13:04Z</time></trkpt>
<trkpt lat="31.741087" lon="35.10729">
<ele>493</ele>
<time>2020-12-02T00:13:13Z</time></trkpt>
<trkpt lat="31.740994" lon="35.107626">
<ele>493</ele>
<time>2020-12-02T00:13:19Z</time></trkpt>
<trkpt lat="31.74107" lon="35.107888">
<ele>495</ele>
<time>2020-12-02T00:13:24Z</time></trkpt>
<trkpt lat="31.741479" lon="35.108485">
<ele>503</ele>
<time>2020-12-02T00:13:37Z</time></trkpt>
<trkpt lat="31.741513" lon="35.1088">
<ele>504</ele>
<time>2020-12-02T00:13:43Z</time></trkpt>
<trkpt lat="31.741392" lon="35.109181">
<ele>504</ele>
<time>2020-12-02T00:13:50Z</time></trkpt>
<trkpt lat="31.74118" lon="35.110215">
<ele>507</ele>
<time>2020-12-02T00:14:08Z</time></trkpt>
<trkpt lat="31.741062" lon="35.110432">
<ele>506</ele>
<time>2020-12-02T00:14:12Z</time></trkpt>
<trkpt lat="31.741062" lon="35.110432">
<ele>506</ele>
<time>2020-12-02T00:14:12Z</time></trkpt>
<trkpt lat="31.740876" lon="35.110772">
<ele>503</ele>
<time>2020-12-02T00:14:19Z</time></trkpt>
<trkpt lat="31.740616" lon="35.111167">
<ele>512</ele>
<time>2020-12-02T00:14:27Z</time></trkpt>
<trkpt lat="31.740237" lon="35.111437">
<ele>513</ele>
<time>2020-12-02T00:14:36Z</time></trkpt>
<trkpt lat="31.738768" lon="35.112014">
<ele>510</ele>
<time>2020-12-02T00:15:07Z</time></trkpt>
<trkpt lat="31.738512" lon="35.11226">
<ele>510</ele>
<time>2020-12-02T00:15:14Z</time></trkpt>
<trkpt lat="31.738014" lon="35.113008">
<ele>519</ele>
<time>2020-12-02T00:15:30Z</time></trkpt>
<trkpt lat="31.737897" lon="35.113256">
<ele>519</ele>
<time>2020-12-02T00:15:35Z</time></trkpt>
<trkpt lat="31.737897" lon="35.113256">
<ele>519</ele>
<time>2020-12-02T00:15:35Z</time></trkpt>
<trkpt lat="31.737672" lon="35.113734">
<ele>518</ele>
<time>2020-12-02T00:15:44Z</time></trkpt>
<trkpt lat="31.737487" lon="35.114058">
<ele>514</ele>
<time>2020-12-02T00:15:51Z</time></trkpt>
<trkpt lat="31.737415" lon="35.114386">
<ele>517</ele>
<time>2020-12-02T00:15:57Z</time></trkpt>
<trkpt lat="31.737361" lon="35.114482">
<ele>519</ele>
<time>2020-12-02T00:15:59Z</time></trkpt>
<trkpt lat="31.73728" lon="35.114473">
<ele>520</ele>
<time>2020-12-02T00:16:00Z</time></trkpt>
<trkpt lat="31.737216" lon="35.114485">
<ele>522</ele>
<time>2020-12-02T00:16:02Z</time></trkpt>
<trkpt lat="31.737153" lon="35.114643">
<ele>523</ele>
<time>2020-12-02T00:16:05Z</time></trkpt>
<trkpt lat="31.73714" lon="35.114938">
<ele>522</ele>
<time>2020-12-02T00:16:10Z</time></trkpt>
<trkpt lat="31.736809" lon="35.116192">
<ele>518</ele>
<time>2020-12-02T00:16:32Z</time></trkpt>
<trkpt lat="31.736137" lon="35.117308">
<ele>526</ele>
<time>2020-12-02T00:16:55Z</time></trkpt>
<trkpt lat="31.736091" lon="35.117435">
<ele>526</ele>
<time>2020-12-02T00:16:58Z</time></trkpt>
<trkpt lat="31.736091" lon="35.117435">
<ele>526</ele>
<time>2020-12-02T00:16:58Z</time></trkpt>
<trkpt lat="31.735955" lon="35.117812">
<ele>523</ele>
<time>2020-12-02T00:17:05Z</time></trkpt>
<trkpt lat="31.735919" lon="35.118405">
<ele>519</ele>
<time>2020-12-02T00:17:15Z</time></trkpt>
<trkpt lat="31.736003" lon="35.11867">
<ele>522</ele>
<time>2020-12-02T00:17:20Z</time></trkpt>
<trkpt lat="31.736228" lon="35.11857">
<ele>521</ele>
<time>2020-12-02T00:17:24Z</time></trkpt>
<trkpt lat="31.7363" lon="35.11857">
<ele>521</ele>
<time>2020-12-02T00:17:26Z</time></trkpt>
<trkpt lat="31.73674" lon="35.118789">
<ele>523</ele>
<time>2020-12-02T00:17:35Z</time></trkpt>
<trkpt lat="31.736948" lon="35.118843">
<ele>525</ele>
<time>2020-12-02T00:17:40Z</time></trkpt>
<trkpt lat="31.738743" lon="35.119043">
<ele>532</ele>
<time>2020-12-02T00:18:16Z</time></trkpt>
<trkpt lat="31.739495" lon="35.119157">
<ele>530</ele>
<time>2020-12-02T00:18:31Z</time></trkpt>
<trkpt lat="31.739942" lon="35.11925">
<ele>532</ele>
<time>2020-12-02T00:18:40Z</time></trkpt>
<trkpt lat="31.740271" lon="35.119286">
<ele>537</ele>
<time>2020-12-02T00:18:47Z</time></trkpt>
<trkpt lat="31.740754" lon="35.11944">
<ele>542</ele>
<time>2020-12-02T00:18:57Z</time></trkpt>
<trkpt lat="31.741503" lon="35.119745">
<ele>547</ele>
<time>2020-12-02T00:19:13Z</time></trkpt>
<trkpt lat="31.741907" lon="35.119939">
<ele>547</ele>
<time>2020-12-02T00:19:21Z</time></trkpt>
<trkpt lat="31.742159" lon="35.120091">
<ele>546</ele>
<time>2020-12-02T00:19:27Z</time></trkpt>
<trkpt lat="31.742403" lon="35.12019">
<ele>547</ele>
<time>2020-12-02T00:19:32Z</time></trkpt>
<trkpt lat="31.742904" lon="35.120327">
<ele>555</ele>
<time>2020-12-02T00:19:43Z</time></trkpt>
<trkpt lat="31.742983" lon="35.120374">
<ele>556</ele>
<time>2020-12-02T00:19:44Z</time></trkpt>
<trkpt lat="31.743242" lon="35.120673">
<ele>555</ele>
<time>2020-12-02T00:19:52Z</time></trkpt>
<trkpt lat="31.743242" lon="35.120673">
<ele>555</ele>
<time>2020-12-02T00:19:52Z</time></trkpt>
<trkpt lat="31.743783" lon="35.121272">
<ele>559</ele>
<time>2020-12-02T00:20:07Z</time></trkpt>
<trkpt lat="31.744302" lon="35.12175">
<ele>566</ele>
<time>2020-12-02T00:20:20Z</time></trkpt>
<trkpt lat="31.744839" lon="35.122161">
<ele>576</ele>
<time>2020-12-02T00:20:33Z</time></trkpt>
<trkpt lat="31.744944" lon="35.122286">
<ele>577</ele>
<time>2020-12-02T00:20:36Z</time></trkpt>
<trkpt lat="31.744981" lon="35.122403">
<ele>576</ele>
<time>2020-12-02T00:20:38Z</time></trkpt>
<trkpt lat="31.745003" lon="35.122716">
<ele>573</ele>
<time>2020-12-02T00:20:43Z</time></trkpt>
<trkpt lat="31.745046" lon="35.12295">
<ele>573</ele>
<time>2020-12-02T00:20:47Z</time></trkpt>
<trkpt lat="31.745105" lon="35.123124">
<ele>575</ele>
<time>2020-12-02T00:20:50Z</time></trkpt>
<trkpt lat="31.745387" lon="35.123804">
<ele>581</ele>
<time>2020-12-02T00:21:03Z</time></trkpt>
<trkpt lat="31.745566" lon="35.12447">
<ele>583</ele>
<time>2020-12-02T00:21:15Z</time></trkpt>
<trkpt lat="31.745699" lon="35.124836">
<ele>585</ele>
<time>2020-12-02T00:21:22Z</time></trkpt>
<trkpt lat="31.745804" lon="35.125223">
<ele>587</ele>
<time>2020-12-02T00:21:29Z</time></trkpt>
<trkpt lat="31.745869" lon="35.12536">
<ele>590</ele>
<time>2020-12-02T00:21:31Z</time></trkpt>
<trkpt lat="31.746005" lon="35.125527">
<ele>595</ele>
<time>2020-12-02T00:21:35Z</time></trkpt>
<trkpt lat="31.746082" lon="35.125677">
<ele>598</ele>
<time>2020-12-02T00:21:38Z</time></trkpt>
<trkpt lat="31.74609" lon="35.125767">
<ele>597</ele>
<time>2020-12-02T00:21:40Z</time></trkpt>
<trkpt lat="31.745971" lon="35.126339">
<ele>590</ele>
<time>2020-12-02T00:21:50Z</time></trkpt>
<trkpt lat="31.745985" lon="35.126493">
<ele>590</ele>
<time>2020-12-02T00:21:53Z</time></trkpt>
<trkpt lat="31.746018" lon="35.126602">
<ele>591</ele>
<time>2020-12-02T00:21:55Z</time></trkpt>
<trkpt lat="31.746077" lon="35.126716">
<ele>592</ele>
<time>2020-12-02T00:21:57Z</time></trkpt>
<trkpt lat="31.746148" lon="35.12681">
<ele>593</ele>
<time>2020-12-02T00:21:59Z</time></trkpt>
<trkpt lat="31.746268" lon="35.126918">
<ele>595</ele>
<time>2020-12-02T00:22:02Z</time></trkpt>
<trkpt lat="31.746522" lon="35.127073">
<ele>600</ele>
<time>2020-12-02T00:22:08Z</time></trkpt>
<trkpt lat="31.746927" lon="35.12738">
<ele>608</ele>
<time>2020-12-02T00:22:17Z</time></trkpt>
<trkpt lat="31.747172" lon="35.12753">
<ele>614</ele>
<time>2020-12-02T00:22:23Z</time></trkpt>
<trkpt lat="31.747279" lon="35.127621">
<ele>618</ele>
<time>2020-12-02T00:22:26Z</time></trkpt>
<trkpt lat="31.747354" lon="35.127775">
<ele>620</ele>
<time>2020-12-02T00:22:29Z</time></trkpt>
<trkpt lat="31.747307" lon="35.127932">
<ele>618</ele>
<time>2020-12-02T00:22:31Z</time></trkpt>
<trkpt lat="31.74723" lon="35.128075">
<ele>615</ele>
<time>2020-12-02T00:22:34Z</time></trkpt>
<trkpt lat="31.747197" lon="35.128219">
<ele>614</ele>
<time>2020-12-02T00:22:37Z</time></trkpt>
<trkpt lat="31.747197" lon="35.128219">
<ele>614</ele>
<time>2020-12-02T00:22:37Z</time></trkpt>
<trkpt lat="31.747179" lon="35.128493">
<ele>616</ele>
<time>2020-12-02T00:22:42Z</time></trkpt>
<trkpt lat="31.747209" lon="35.128916">
<ele>627</ele>
<time>2020-12-02T00:22:49Z</time></trkpt>
<trkpt lat="31.747198" lon="35.129085">
<ele>630</ele>
<time>2020-12-02T00:22:52Z</time></trkpt>
<trkpt lat="31.74716" lon="35.129204">
<ele>632</ele>
<time>2020-12-02T00:22:54Z</time></trkpt>
<trkpt lat="31.74708" lon="35.129289">
<ele>633</ele>
<time>2020-12-02T00:22:56Z</time></trkpt>
<trkpt lat="31.747014" lon="35.129323">
<ele>633</ele>
<time>2020-12-02T00:22:57Z</time></trkpt>
<trkpt lat="31.746728" lon="35.129359">
<ele>628</ele>
<time>2020-12-02T00:23:03Z</time></trkpt>
<trkpt lat="31.746448" lon="35.129438">
<ele>627</ele>
<time>2020-12-02T00:23:09Z</time></trkpt>
<trkpt lat="31.745793" lon="35.129796">
<ele>633</ele>
<time>2020-12-02T00:23:23Z</time></trkpt>
<trkpt lat="31.745544" lon="35.12984">
<ele>635</ele>
<time>2020-12-02T00:23:29Z</time></trkpt>
<trkpt lat="31.745401" lon="35.129828">
<ele>635</ele>
<time>2020-12-02T00:23:31Z</time></trkpt>
<trkpt lat="31.745222" lon="35.129846">
<ele>635</ele>
<time>2020-12-02T00:23:35Z</time></trkpt>
<trkpt lat="31.744977" lon="35.129914">
<ele>638</ele>
<time>2020-12-02T00:23:40Z</time></trkpt>
<trkpt lat="31.74474" lon="35.130016">
<ele>639</ele>
<time>2020-12-02T00:23:45Z</time></trkpt>
<trkpt lat="31.744145" lon="35.130327">
<ele>644</ele>
<time>2020-12-02T00:23:58Z</time></trkpt>
<trkpt lat="31.743913" lon="35.130528">
<ele>644</ele>
<time>2020-12-02T00:24:04Z</time></trkpt>
<trkpt lat="31.743745" lon="35.13075">
<ele>646</ele>
<time>2020-12-02T00:24:09Z</time></trkpt>
<trkpt lat="31.743618" lon="35.130956">
<ele>646</ele>
<time>2020-12-02T00:24:13Z</time></trkpt>
<trkpt lat="31.743537" lon="35.131146">
<ele>647</ele>
<time>2020-12-02T00:24:17Z</time></trkpt>
<trkpt lat="31.74348" lon="35.131347">
<ele>648</ele>
<time>2020-12-02T00:24:21Z</time></trkpt>
<trkpt lat="31.743412" lon="35.131765">
<ele>652</ele>
<time>2020-12-02T00:24:28Z</time></trkpt>
<trkpt lat="31.743394" lon="35.132018">
<ele>654</ele>
<time>2020-12-02T00:24:32Z</time></trkpt>
<trkpt lat="31.743408" lon="35.132485">
<ele>659</ele>
<time>2020-12-02T00:24:40Z</time></trkpt>
<trkpt lat="31.743445" lon="35.13278">
<ele>665</ele>
<time>2020-12-02T00:24:45Z</time></trkpt>
<trkpt lat="31.743524" lon="35.133062">
<ele>672</ele>
<time>2020-12-02T00:24:50Z</time></trkpt>
<trkpt lat="31.743541" lon="35.133187">
<ele>674</ele>
<time>2020-12-02T00:24:52Z</time></trkpt>
<trkpt lat="31.743502" lon="35.133303">
<ele>674</ele>
<time>2020-12-02T00:24:55Z</time></trkpt>
<trkpt lat="31.743445" lon="35.133355">
<ele>673</ele>
<time>2020-12-02T00:24:56Z</time></trkpt>
<trkpt lat="31.743378" lon="35.133383">
<ele>673</ele>
<time>2020-12-02T00:24:57Z</time></trkpt>
<trkpt lat="31.742584" lon="35.133362">
<ele>672</ele>
<time>2020-12-02T00:25:13Z</time></trkpt>
<trkpt lat="31.742584" lon="35.133362">
<ele>672</ele>
<time>2020-12-02T00:25:13Z</time></trkpt>
<trkpt lat="31.742081" lon="35.133322">
<ele>679</ele>
<time>2020-12-02T00:25:23Z</time></trkpt>
<trkpt lat="31.741694" lon="35.133237">
<ele>683</ele>
<time>2020-12-02T00:25:31Z</time></trkpt>
<trkpt lat="31.741355" lon="35.133092">
<ele>683</ele>
<time>2020-12-02T00:25:39Z</time></trkpt>
<trkpt lat="31.741261" lon="35.133036">
<ele>683</ele>
<time>2020-12-02T00:25:41Z</time></trkpt>
<trkpt lat="31.741161" lon="35.132977">
<ele>683</ele>
<time>2020-12-02T00:25:43Z</time></trkpt>
<trkpt lat="31.740289" lon="35.132298">
<ele>678</ele>
<time>2020-12-02T00:26:04Z</time></trkpt>
<trkpt lat="31.740188" lon="35.132252">
<ele>679</ele>
<time>2020-12-02T00:26:06Z</time></trkpt>
<trkpt lat="31.740034" lon="35.132251">
<ele>682</ele>
<time>2020-12-02T00:26:09Z</time></trkpt>
<trkpt lat="31.739728" lon="35.132026">
<ele>676</ele>
<time>2020-12-02T00:26:16Z</time></trkpt>
<trkpt lat="31.73954" lon="35.131921">
<ele>674</ele>
<time>2020-12-02T00:26:20Z</time></trkpt>
<trkpt lat="31.739403" lon="35.131872">
<ele>673</ele>
<time>2020-12-02T00:26:23Z</time></trkpt>
<trkpt lat="31.739314" lon="35.13186">
<ele>673</ele>
<time>2020-12-02T00:26:25Z</time></trkpt>
<trkpt lat="31.739196" lon="35.131883">
<ele>673</ele>
<time>2020-12-02T00:26:28Z</time></trkpt>
<trkpt lat="31.739103" lon="35.131902">
<ele>672</ele>
<time>2020-12-02T00:26:29Z</time></trkpt>
<trkpt lat="31.738981" lon="35.131967">
<ele>671</ele>
<time>2020-12-02T00:26:32Z</time></trkpt>
<trkpt lat="31.738852" lon="35.132063">
<ele>670</ele>
<time>2020-12-02T00:26:35Z</time></trkpt>
<trkpt lat="31.738669" lon="35.132232">
<ele>667</ele>
<time>2020-12-02T00:26:40Z</time></trkpt>
<trkpt lat="31.738551" lon="35.132374">
<ele>666</ele>
<time>2020-12-02T00:26:43Z</time></trkpt>
<trkpt lat="31.738481" lon="35.132532">
<ele>665</ele>
<time>2020-12-02T00:26:46Z</time></trkpt>
<trkpt lat="31.738425" lon="35.13283">
<ele>665</ele>
<time>2020-12-02T00:26:51Z</time></trkpt>
<trkpt lat="31.738385" lon="35.133205">
<ele>665</ele>
<time>2020-12-02T00:26:58Z</time></trkpt>
<trkpt lat="31.738405" lon="35.133612">
<ele>663</ele>
<time>2020-12-02T00:27:05Z</time></trkpt>
<trkpt lat="31.738408" lon="35.134131">
<ele>659</ele>
<time>2020-12-02T00:27:14Z</time></trkpt>
<trkpt lat="31.73839" lon="35.134553">
<ele>656</ele>
<time>2020-12-02T00:27:21Z</time></trkpt>
<trkpt lat="31.738412" lon="35.135286">
<ele>654</ele>
<time>2020-12-02T00:27:33Z</time></trkpt>
<trkpt lat="31.738381" lon="35.135712">
<ele>653</ele>
<time>2020-12-02T00:27:41Z</time></trkpt>
<trkpt lat="31.738321" lon="35.136145">
<ele>651</ele>
<time>2020-12-02T00:27:48Z</time></trkpt>
<trkpt lat="31.738115" lon="35.136789">
<ele>642</ele>
<time>2020-12-02T00:28:00Z</time></trkpt>
<trkpt lat="31.738073" lon="35.13702">
<ele>641</ele>
<time>2020-12-02T00:28:04Z</time></trkpt>
<trkpt lat="31.737925" lon="35.137558">
<ele>636</ele>
<time>2020-12-02T00:28:14Z</time></trkpt>
<trkpt lat="31.737925" lon="35.137558">
<ele>636</ele>
<time>2020-12-02T00:28:14Z</time></trkpt>
<trkpt lat="31.737894" lon="35.137751">
<ele>634</ele>
<time>2020-12-02T00:28:17Z</time></trkpt>
<trkpt lat="31.7379" lon="35.137907">
<ele>634</ele>
<time>2020-12-02T00:28:20Z</time></trkpt>
<trkpt lat="31.73793" lon="35.13811">
<ele>635</ele>
<time>2020-12-02T00:28:23Z</time></trkpt>
<trkpt lat="31.73799" lon="35.138329">
<ele>637</ele>
<time>2020-12-02T00:28:27Z</time></trkpt>
<trkpt lat="31.738118" lon="35.13858">
<ele>645</ele>
<time>2020-12-02T00:28:32Z</time></trkpt>
<trkpt lat="31.738131" lon="35.13866">
<ele>646</ele>
<time>2020-12-02T00:28:33Z</time></trkpt>
<trkpt lat="31.738093" lon="35.138771">
<ele>646</ele>
<time>2020-12-02T00:28:35Z</time></trkpt>
<trkpt lat="31.73803" lon="35.138818">
<ele>645</ele>
<time>2020-12-02T00:28:37Z</time></trkpt>
<trkpt lat="31.737962" lon="35.138828">
<ele>644</ele>
<time>2020-12-02T00:28:38Z</time></trkpt>
<trkpt lat="31.737734" lon="35.138798">
<ele>637</ele>
<time>2020-12-02T00:28:43Z</time></trkpt>
<trkpt lat="31.73712" lon="35.138871">
<ele>626</ele>
<time>2020-12-02T00:28:55Z</time></trkpt>
<trkpt lat="31.736643" lon="35.138874">
<ele>619</ele>
<time>2020-12-02T00:29:05Z</time></trkpt>
<trkpt lat="31.736494" lon="35.138896">
<ele>617</ele>
<time>2020-12-02T00:29:08Z</time></trkpt>
<trkpt lat="31.735976" lon="35.139027">
<ele>612</ele>
<time>2020-12-02T00:29:18Z</time></trkpt>
<trkpt lat="31.735577" lon="35.139068">
<ele>608</ele>
<time>2020-12-02T00:29:26Z</time></trkpt>
<trkpt lat="31.734904" lon="35.139095">
<ele>602</ele>
<time>2020-12-02T00:29:40Z</time></trkpt>
<trkpt lat="31.734638" lon="35.139139">
<ele>600</ele>
<time>2020-12-02T00:29:45Z</time></trkpt>
<trkpt lat="31.734456" lon="35.139228">
<ele>601</ele>
<time>2020-12-02T00:29:49Z</time></trkpt>
<trkpt lat="31.733725" lon="35.13946">
<ele>598</ele>
<time>2020-12-02T00:30:04Z</time></trkpt>
<trkpt lat="31.733553" lon="35.13945">
<ele>596</ele>
<time>2020-12-02T00:30:08Z</time></trkpt>
<trkpt lat="31.73332" lon="35.139491">
<ele>593</ele>
<time>2020-12-02T00:30:13Z</time></trkpt>
<trkpt lat="31.733104" lon="35.139587">
<ele>592</ele>
<time>2020-12-02T00:30:17Z</time></trkpt>
<trkpt lat="31.732995" lon="35.139673">
<ele>592</ele>
<time>2020-12-02T00:30:20Z</time></trkpt>
<trkpt lat="31.733003" lon="35.139808">
<ele>595</ele>
<time>2020-12-02T00:30:22Z</time></trkpt>
<trkpt lat="31.733446" lon="35.140496">
<ele>603</ele>
<time>2020-12-02T00:30:37Z</time></trkpt>
<trkpt lat="31.733609" lon="35.140896">
<ele>604</ele>
<time>2020-12-02T00:30:44Z</time></trkpt>
<trkpt lat="31.733767" lon="35.141158">
<ele>605</ele>
<time>2020-12-02T00:30:50Z</time></trkpt>
<trkpt lat="31.733767" lon="35.141158">
<ele>605</ele>
<time>2020-12-02T00:30:50Z</time></trkpt>
<trkpt lat="31.734027" lon="35.141748">
<ele>604</ele>
<time>2020-12-02T00:31:01Z</time></trkpt>
<trkpt lat="31.734141" lon="35.142268">
<ele>600</ele>
<time>2020-12-02T00:31:10Z</time></trkpt>
<trkpt lat="31.734241" lon="35.142562">
<ele>600</ele>
<time>2020-12-02T00:31:16Z</time></trkpt>
<trkpt lat="31.734358" lon="35.142794">
<ele>605</ele>
<time>2020-12-02T00:31:20Z</time></trkpt>
<trkpt lat="31.734401" lon="35.143013">
<ele>605</ele>
<time>2020-12-02T00:31:24Z</time></trkpt>
<trkpt lat="31.734575" lon="35.144061">
<ele>606</ele>
<time>2020-12-02T00:31:42Z</time></trkpt>
<trkpt lat="31.734683" lon="35.144356">
<ele>605</ele>
<time>2020-12-02T00:31:48Z</time></trkpt>
<trkpt lat="31.734675" lon="35.144587">
<ele>600</ele>
<time>2020-12-02T00:31:52Z</time></trkpt>
<trkpt lat="31.734741" lon="35.144717">
<ele>599</ele>
<time>2020-12-02T00:31:54Z</time></trkpt>
<trkpt lat="31.734959" lon="35.144891">
<ele>599</ele>
<time>2020-12-02T00:32:00Z</time></trkpt>
<trkpt lat="31.735318" lon="35.145102">
<ele>607</ele>
<time>2020-12-02T00:32:08Z</time></trkpt>
<trkpt lat="31.735483" lon="35.145247">
<ele>610</ele>
<time>2020-12-02T00:32:12Z</time></trkpt>
<trkpt lat="31.735569" lon="35.145353">
<ele>610</ele>
<time>2020-12-02T00:32:14Z</time></trkpt>
<trkpt lat="31.73586" lon="35.145794">
<ele>604</ele>
<time>2020-12-02T00:32:24Z</time></trkpt>
<trkpt lat="31.735908" lon="35.145894">
<ele>604</ele>
<time>2020-12-02T00:32:26Z</time></trkpt>
<trkpt lat="31.736009" lon="35.146197">
<ele>603</ele>
<time>2020-12-02T00:32:31Z</time></trkpt>
<trkpt lat="31.736063" lon="35.146448">
<ele>600</ele>
<time>2020-12-02T00:32:36Z</time></trkpt>
<trkpt lat="31.736126" lon="35.146596">
<ele>599</ele>
<time>2020-12-02T00:32:39Z</time></trkpt>
<trkpt lat="31.736281" lon="35.146783">
<ele>600</ele>
<time>2020-12-02T00:32:43Z</time></trkpt>
<trkpt lat="31.73639" lon="35.146852">
<ele>601</ele>
<time>2020-12-02T00:32:46Z</time></trkpt>
<trkpt lat="31.736957" lon="35.147069">
<ele>606</ele>
<time>2020-12-02T00:32:57Z</time></trkpt>
<trkpt lat="31.737055" lon="35.147121">
<ele>607</ele>
<time>2020-12-02T00:33:00Z</time></trkpt>
<trkpt lat="31.737374" lon="35.147312">
<ele>605</ele>
<time>2020-12-02T00:33:07Z</time></trkpt>
<trkpt lat="31.737491" lon="35.147407">
<ele>603</ele>
<time>2020-12-02T00:33:10Z</time></trkpt>
<trkpt lat="31.73757" lon="35.147509">
<ele>602</ele>
<time>2020-12-02T00:33:12Z</time></trkpt>
<trkpt lat="31.737716" lon="35.147774">
<ele>602</ele>
<time>2020-12-02T00:33:17Z</time></trkpt>
<trkpt lat="31.737962" lon="35.148334">
<ele>597</ele>
<time>2020-12-02T00:33:28Z</time></trkpt>
<trkpt lat="31.738203" lon="35.148696">
<ele>600</ele>
<time>2020-12-02T00:33:36Z</time></trkpt>
<trkpt lat="31.738347" lon="35.148948">
<ele>601</ele>
<time>2020-12-02T00:33:41Z</time></trkpt>
<trkpt lat="31.738377" lon="35.149046">
<ele>602</ele>
<time>2020-12-02T00:33:43Z</time></trkpt>
<trkpt lat="31.738376" lon="35.149147">
<ele>602</ele>
<time>2020-12-02T00:33:45Z</time></trkpt>
<trkpt lat="31.738323" lon="35.149389">
<ele>601</ele>
<time>2020-12-02T00:33:49Z</time></trkpt>
<trkpt lat="31.738329" lon="35.149595">
<ele>602</ele>
<time>2020-12-02T00:33:52Z</time></trkpt>
<trkpt lat="31.738567" lon="35.1502">
<ele>608</ele>
<time>2020-12-02T00:34:04Z</time></trkpt>
<trkpt lat="31.738712" lon="35.150437">
<ele>609</ele>
<time>2020-12-02T00:34:09Z</time></trkpt>
<trkpt lat="31.738846" lon="35.150538">
<ele>611</ele>
<time>2020-12-02T00:34:12Z</time></trkpt>
<trkpt lat="31.739128" lon="35.150635">
<ele>615</ele>
<time>2020-12-02T00:34:18Z</time></trkpt>
<trkpt lat="31.739504" lon="35.150874">
<ele>621</ele>
<time>2020-12-02T00:34:26Z</time></trkpt>
<trkpt lat="31.739554" lon="35.150934">
<ele>621</ele>
<time>2020-12-02T00:34:28Z</time></trkpt>
<trkpt lat="31.739639" lon="35.151115">
<ele>621</ele>
<time>2020-12-02T00:34:31Z</time></trkpt>
<trkpt lat="31.739639" lon="35.151115">
<ele>621</ele>
<time>2020-12-02T00:34:31Z</time></trkpt>
<trkpt lat="31.739772" lon="35.151426">
<ele>620</ele>
<time>2020-12-02T00:34:37Z</time></trkpt>
<trkpt lat="31.739851" lon="35.151567">
<ele>619</ele>
<time>2020-12-02T00:34:40Z</time></trkpt>
<trkpt lat="31.739916" lon="35.151631">
<ele>620</ele>
<time>2020-12-02T00:34:42Z</time></trkpt>
<trkpt lat="31.740043" lon="35.151703">
<ele>621</ele>
<time>2020-12-02T00:34:45Z</time></trkpt>
<trkpt lat="31.740205" lon="35.15185">
<ele>622</ele>
<time>2020-12-02T00:34:49Z</time></trkpt>
<trkpt lat="31.740508" lon="35.152209">
<ele>622</ele>
<time>2020-12-02T00:34:57Z</time></trkpt>
<trkpt lat="31.74057" lon="35.152247">
<ele>623</ele>
<time>2020-12-02T00:34:59Z</time></trkpt>
<trkpt lat="31.740638" lon="35.152253">
<ele>624</ele>
<time>2020-12-02T00:35:00Z</time></trkpt>
<trkpt lat="31.74076" lon="35.152229">
<ele>627</ele>
<time>2020-12-02T00:35:03Z</time></trkpt>
<trkpt lat="31.740864" lon="35.152241">
<ele>628</ele>
<time>2020-12-02T00:35:05Z</time></trkpt>
<trkpt lat="31.740952" lon="35.152289">
<ele>629</ele>
<time>2020-12-02T00:35:07Z</time></trkpt>
<trkpt lat="31.741487" lon="35.152778">
<ele>626</ele>
<time>2020-12-02T00:35:20Z</time></trkpt>
<trkpt lat="31.74155" lon="35.152816">
<ele>626</ele>
<time>2020-12-02T00:35:22Z</time></trkpt>
<trkpt lat="31.741662" lon="35.152845">
<ele>627</ele>
<time>2020-12-02T00:35:24Z</time></trkpt>
<trkpt lat="31.742011" lon="35.152852">
<ele>630</ele>
<time>2020-12-02T00:35:31Z</time></trkpt>
<trkpt lat="31.742202" lon="35.152906">
<ele>630</ele>
<time>2020-12-02T00:35:35Z</time></trkpt>
<trkpt lat="31.742527" lon="35.153087">
<ele>629</ele>
<time>2020-12-02T00:35:42Z</time></trkpt>
<trkpt lat="31.74272" lon="35.153127">
<ele>629</ele>
<time>2020-12-02T00:35:46Z</time></trkpt>
<trkpt lat="31.743033" lon="35.153117">
<ele>632</ele>
<time>2020-12-02T00:35:52Z</time></trkpt>
<trkpt lat="31.743595" lon="35.15321">
<ele>633</ele>
<time>2020-12-02T00:36:04Z</time></trkpt>
<trkpt lat="31.7438" lon="35.153198">
<ele>635</ele>
<time>2020-12-02T00:36:08Z</time></trkpt>
<trkpt lat="31.744193" lon="35.153078">
<ele>642</ele>
<time>2020-12-02T00:36:16Z</time></trkpt>
<trkpt lat="31.744342" lon="35.153056">
<ele>646</ele>
<time>2020-12-02T00:36:19Z</time></trkpt>
<trkpt lat="31.744431" lon="35.153065">
<ele>648</ele>
<time>2020-12-02T00:36:21Z</time></trkpt>
<trkpt lat="31.744522" lon="35.153119">
<ele>648</ele>
<time>2020-12-02T00:36:23Z</time></trkpt>
<trkpt lat="31.744556" lon="35.153187">
<ele>648</ele>
<time>2020-12-02T00:36:24Z</time></trkpt>
<trkpt lat="31.744564" lon="35.153237">
<ele>647</ele>
<time>2020-12-02T00:36:25Z</time></trkpt>
<trkpt lat="31.74455" lon="35.153319">
<ele>645</ele>
<time>2020-12-02T00:36:26Z</time></trkpt>
<trkpt lat="31.744365" lon="35.153728">
<ele>638</ele>
<time>2020-12-02T00:36:34Z</time></trkpt>
<trkpt lat="31.744321" lon="35.153904">
<ele>636</ele>
<time>2020-12-02T00:36:37Z</time></trkpt>
<trkpt lat="31.744335" lon="35.154154">
<ele>636</ele>
<time>2020-12-02T00:36:42Z</time></trkpt>
<trkpt lat="31.744373" lon="35.154356">
<ele>634</ele>
<time>2020-12-02T00:36:45Z</time></trkpt>
<trkpt lat="31.744462" lon="35.154558">
<ele>634</ele>
<time>2020-12-02T00:36:49Z</time></trkpt>
<trkpt lat="31.744604" lon="35.154718">
<ele>635</ele>
<time>2020-12-02T00:36:53Z</time></trkpt>
<trkpt lat="31.744839" lon="35.154928">
<ele>637</ele>
<time>2020-12-02T00:36:59Z</time></trkpt>
<trkpt lat="31.745305" lon="35.155413">
<ele>637</ele>
<time>2020-12-02T00:37:11Z</time></trkpt>
<trkpt lat="31.745305" lon="35.155413">
<ele>637</ele>
<time>2020-12-02T00:37:11Z</time></trkpt>
<trkpt lat="31.745642" lon="35.155775">
<ele>636</ele>
<time>2020-12-02T00:37:21Z</time></trkpt>
<trkpt lat="31.746027" lon="35.156118">
<ele>637</ele>
<time>2020-12-02T00:37:30Z</time></trkpt>
<trkpt lat="31.746476" lon="35.156442">
<ele>638</ele>
<time>2020-12-02T00:37:41Z</time></trkpt>
<trkpt lat="31.746583" lon="35.156536">
<ele>638</ele>
<time>2020-12-02T00:37:43Z</time></trkpt>
<trkpt lat="31.746689" lon="35.156676">
<ele>637</ele>
<time>2020-12-02T00:37:47Z</time></trkpt>
<trkpt lat="31.746871" lon="35.15701">
<ele>636</ele>
<time>2020-12-02T00:37:53Z</time></trkpt>
<trkpt lat="31.746965" lon="35.157114">
<ele>636</ele>
<time>2020-12-02T00:37:56Z</time></trkpt>
<trkpt lat="31.747337" lon="35.157267">
<ele>640</ele>
<time>2020-12-02T00:38:04Z</time></trkpt>
<trkpt lat="31.747507" lon="35.157311">
<ele>643</ele>
<time>2020-12-02T00:38:07Z</time></trkpt>
<trkpt lat="31.74757" lon="35.157359">
<ele>644</ele>
<time>2020-12-02T00:38:09Z</time></trkpt>
<trkpt lat="31.747592" lon="35.157409">
<ele>643</ele>
<time>2020-12-02T00:38:10Z</time></trkpt>
<trkpt lat="31.747583" lon="35.157508">
<ele>641</ele>
<time>2020-12-02T00:38:12Z</time></trkpt>
<trkpt lat="31.747406" lon="35.157772">
<ele>637</ele>
<time>2020-12-02T00:38:17Z</time></trkpt>
<trkpt lat="31.747341" lon="35.15793">
<ele>635</ele>
<time>2020-12-02T00:38:20Z</time></trkpt>
<trkpt lat="31.747322" lon="35.158116">
<ele>634</ele>
<time>2020-12-02T00:38:23Z</time></trkpt>
<trkpt lat="31.747325" lon="35.158264">
<ele>634</ele>
<time>2020-12-02T00:38:26Z</time></trkpt>
<trkpt lat="31.747351" lon="35.158372">
<ele>634</ele>
<time>2020-12-02T00:38:28Z</time></trkpt>
<trkpt lat="31.747611" lon="35.158782">
<ele>635</ele>
<time>2020-12-02T00:38:37Z</time></trkpt>
<trkpt lat="31.747678" lon="35.158849">
<ele>636</ele>
<time>2020-12-02T00:38:38Z</time></trkpt>
<trkpt lat="31.747905" lon="35.158991">
<ele>640</ele>
<time>2020-12-02T00:38:44Z</time></trkpt>
<trkpt lat="31.747905" lon="35.158991">
<ele>640</ele>
<time>2020-12-02T00:38:44Z</time></trkpt>
<trkpt lat="31.74832" lon="35.159311">
<ele>646</ele>
<time>2020-12-02T00:38:53Z</time></trkpt>
<trkpt lat="31.748439" lon="35.159433">
<ele>648</ele>
<time>2020-12-02T00:38:57Z</time></trkpt>
<trkpt lat="31.748483" lon="35.159531">
<ele>648</ele>
<time>2020-12-02T00:38:59Z</time></trkpt>
<trkpt lat="31.748466" lon="35.15969">
<ele>647</ele>
<time>2020-12-02T00:39:01Z</time></trkpt>
<trkpt lat="31.748392" lon="35.159808">
<ele>645</ele>
<time>2020-12-02T00:39:04Z</time></trkpt>
<trkpt lat="31.748036" lon="35.160086">
<ele>638</ele>
<time>2020-12-02T00:39:12Z</time></trkpt>
<trkpt lat="31.747914" lon="35.160242">
<ele>636</ele>
<time>2020-12-02T00:39:16Z</time></trkpt>
<trkpt lat="31.747848" lon="35.160443">
<ele>635</ele>
<time>2020-12-02T00:39:20Z</time></trkpt>
<trkpt lat="31.747832" lon="35.160597">
<ele>635</ele>
<time>2020-12-02T00:39:22Z</time></trkpt>
<trkpt lat="31.747849" lon="35.160707">
<ele>636</ele>
<time>2020-12-02T00:39:24Z</time></trkpt>
<trkpt lat="31.74793" lon="35.160851">
<ele>638</ele>
<time>2020-12-02T00:39:27Z</time></trkpt>
<trkpt lat="31.748247" lon="35.161262">
<ele>645</ele>
<time>2020-12-02T00:39:37Z</time></trkpt>
<trkpt lat="31.748267" lon="35.161346">
<ele>646</ele>
<time>2020-12-02T00:39:38Z</time></trkpt>
<trkpt lat="31.748233" lon="35.161443">
<ele>645</ele>
<time>2020-12-02T00:39:40Z</time></trkpt>
<trkpt lat="31.748126" lon="35.16151">
<ele>644</ele>
<time>2020-12-02T00:39:42Z</time></trkpt>
<trkpt lat="31.747571" lon="35.161676">
<ele>639</ele>
<time>2020-12-02T00:39:54Z</time></trkpt>
<trkpt lat="31.747257" lon="35.161822">
<ele>636</ele>
<time>2020-12-02T00:40:00Z</time></trkpt>
<trkpt lat="31.747162" lon="35.161879">
<ele>636</ele>
<time>2020-12-02T00:40:03Z</time></trkpt>
<trkpt lat="31.747057" lon="35.161975">
<ele>635</ele>
<time>2020-12-02T00:40:05Z</time></trkpt>
<trkpt lat="31.747007" lon="35.162056">
<ele>636</ele>
<time>2020-12-02T00:40:07Z</time></trkpt>
<trkpt lat="31.747007" lon="35.162056">
<ele>636</ele>
<time>2020-12-02T00:40:07Z</time></trkpt>
<trkpt lat="31.746701" lon="35.162561">
<ele>639</ele>
<time>2020-12-02T00:40:18Z</time></trkpt>
<trkpt lat="31.746469" lon="35.163111">
<ele>642</ele>
<time>2020-12-02T00:40:28Z</time></trkpt>
<trkpt lat="31.746359" lon="35.163275">
<ele>642</ele>
<time>2020-12-02T00:40:32Z</time></trkpt>
<trkpt lat="31.746126" lon="35.16347">
<ele>640</ele>
<time>2020-12-02T00:40:37Z</time></trkpt>
<trkpt lat="31.746076" lon="35.163419">
<ele>638</ele>
<time>2020-12-02T00:40:39Z</time></trkpt>
<trkpt lat="31.746009" lon="35.163416">
<ele>637</ele>
<time>2020-12-02T00:40:40Z</time></trkpt>
<trkpt lat="31.745956" lon="35.163464">
<ele>637</ele>
<time>2020-12-02T00:40:41Z</time></trkpt>
<trkpt lat="31.74594" lon="35.16354">
<ele>638</ele>
<time>2020-12-02T00:40:43Z</time></trkpt>
<trkpt lat="31.745949" lon="35.163579">
<ele>639</ele>
<time>2020-12-02T00:40:43Z</time></trkpt>
<trkpt lat="31.745691" lon="35.163795">
<ele>639</ele>
<time>2020-12-02T00:40:50Z</time></trkpt>
<trkpt lat="31.744516" lon="35.164979">
<ele>641</ele>
<time>2020-12-02T00:41:21Z</time></trkpt>
<trkpt lat="31.744335" lon="35.16519">
<ele>641</ele>
<time>2020-12-02T00:41:26Z</time></trkpt>
<trkpt lat="31.744232" lon="35.165346">
<ele>640</ele>
<time>2020-12-02T00:41:29Z</time></trkpt>
<trkpt lat="31.744026" lon="35.16581">
<ele>640</ele>
<time>2020-12-02T00:41:38Z</time></trkpt>
<trkpt lat="31.743951" lon="35.166129">
<ele>641</ele>
<time>2020-12-02T00:41:44Z</time></trkpt>
<trkpt lat="31.743907" lon="35.166638">
<ele>643</ele>
<time>2020-12-02T00:41:52Z</time></trkpt>
<trkpt lat="31.743886" lon="35.167752">
<ele>646</ele>
<time>2020-12-02T00:42:11Z</time></trkpt>
<trkpt lat="31.743866" lon="35.168029">
<ele>646</ele>
<time>2020-12-02T00:42:16Z</time></trkpt>
<trkpt lat="31.743866" lon="35.168029">
<ele>646</ele>
<time>2020-12-02T00:42:16Z</time></trkpt>
<trkpt lat="31.743855" lon="35.168178">
<ele>646</ele>
<time>2020-12-02T00:42:19Z</time></trkpt>
<trkpt lat="31.743685" lon="35.16913">
<ele>647</ele>
<time>2020-12-02T00:42:35Z</time></trkpt>
<trkpt lat="31.743595" lon="35.170155">
<ele>646</ele>
<time>2020-12-02T00:42:53Z</time></trkpt>
<trkpt lat="31.743605" lon="35.170428">
<ele>646</ele>
<time>2020-12-02T00:42:57Z</time></trkpt>
<trkpt lat="31.743696" lon="35.170911">
<ele>648</ele>
<time>2020-12-02T00:43:06Z</time></trkpt>
<trkpt lat="31.743713" lon="35.171179">
<ele>648</ele>
<time>2020-12-02T00:43:10Z</time></trkpt>
<trkpt lat="31.743632" lon="35.17225">
<ele>647</ele>
<time>2020-12-02T00:43:29Z</time></trkpt>
<trkpt lat="31.743565" lon="35.17393">
<ele>649</ele>
<time>2020-12-02T00:43:57Z</time></trkpt>
<trkpt lat="31.7437" lon="35.174614">
<ele>650</ele>
<time>2020-12-02T00:44:09Z</time></trkpt>
<trkpt lat="31.743746" lon="35.174782">
<ele>650</ele>
<time>2020-12-02T00:44:12Z</time></trkpt>
<trkpt lat="31.743942" lon="35.175185">
<ele>651</ele>
<time>2020-12-02T00:44:20Z</time></trkpt>
<trkpt lat="31.743942" lon="35.175185">
<ele>651</ele>
<time>2020-12-02T00:44:20Z</time></trkpt>
<trkpt lat="31.744171" lon="35.175585">
<ele>649</ele>
<time>2020-12-02T00:44:29Z</time></trkpt>
<trkpt lat="31.744279" lon="35.175727">
<ele>648</ele>
<time>2020-12-02T00:44:32Z</time></trkpt>
<trkpt lat="31.744525" lon="35.175924">
<ele>649</ele>
<time>2020-12-02T00:44:38Z</time></trkpt>
<trkpt lat="31.744579" lon="35.17599">
<ele>649</ele>
<time>2020-12-02T00:44:39Z</time></trkpt>
<trkpt lat="31.744688" lon="35.175836">
<ele>652</ele>
<time>2020-12-02T00:44:43Z</time></trkpt>
<trkpt lat="31.744821" lon="35.175959">
<ele>652</ele>
<time>2020-12-02T00:44:46Z</time></trkpt>
<trkpt lat="31.744821" lon="35.175959">
<ele>652</ele>
<time>2020-12-02T00:44:46Z</time></trkpt>
<trkpt lat="31.744998" lon="35.176123">
<ele>653</ele>
<time>2020-12-02T00:44:51Z</time></trkpt>
<trkpt lat="31.745187" lon="35.176399">
<ele>653</ele>
<time>2020-12-02T00:44:57Z</time></trkpt>
<trkpt lat="31.745294" lon="35.176748">
<ele>651</ele>
<time>2020-12-02T00:45:03Z</time></trkpt>
<trkpt lat="31.745297" lon="35.177">
<ele>652</ele>
<time>2020-12-02T00:45:07Z</time></trkpt>
<trkpt lat="31.745497" lon="35.176992">
<ele>653</ele>
<time>2020-12-02T00:45:11Z</time></trkpt>
<trkpt lat="31.745497" lon="35.176992">
<ele>653</ele>
<time>2020-12-02T00:45:11Z</time></trkpt>
<trkpt lat="31.745572" lon="35.176988">
<ele>654</ele>
<time>2020-12-02T00:45:13Z</time></trkpt>
<trkpt lat="31.745566" lon="35.177092">
<ele>654</ele>
<time>2020-12-02T00:45:15Z</time></trkpt>
<trkpt lat="31.745497" lon="35.177111">
<ele>654</ele>
<time>2020-12-02T00:45:16Z</time></trkpt>
<trkpt lat="31.745451" lon="35.177174">
<ele>653</ele>
<time>2020-12-02T00:45:17Z</time></trkpt>
<trkpt lat="31.745444" lon="35.177257">
<ele>653</ele>
<time>2020-12-02T00:45:19Z</time></trkpt>
<trkpt lat="31.745481" lon="35.177328">
<ele>654</ele>
<time>2020-12-02T00:45:20Z</time></trkpt>
<trkpt lat="31.745567" lon="35.177361">
<ele>655</ele>
<time>2020-12-02T00:45:22Z</time></trkpt>
<trkpt lat="31.745625" lon="35.177335">
<ele>655</ele>
<time>2020-12-02T00:45:23Z</time></trkpt>
<trkpt lat="31.745675" lon="35.177243">
<ele>656</ele>
<time>2020-12-02T00:45:25Z</time></trkpt>
<trkpt lat="31.745675" lon="35.177243">
<ele>656</ele>
<time>2020-12-02T00:45:25Z</time></trkpt>
<trkpt lat="31.74567" lon="35.177242">
<ele>655</ele>
<time>2020-12-02T00:45:25Z</time></trkpt>
<trkpt lat="31.745668" lon="35.177199">
<ele>655</ele>
<time>2020-12-02T00:45:26Z</time></trkpt>
<trkpt lat="31.745632" lon="35.177126">
<ele>655</ele>
<time>2020-12-02T00:45:27Z</time></trkpt>
<trkpt lat="31.745566" lon="35.177092">
<ele>654</ele>
<time>2020-12-02T00:45:29Z</time></trkpt>
<trkpt lat="31.745572" lon="35.176988">
<ele>654</ele>
<time>2020-12-02T00:45:31Z</time></trkpt>
<trkpt lat="31.745492" lon="35.176992">
<ele>653</ele>
<time>2020-12-02T00:45:32Z</time></trkpt>
<trkpt lat="31.745492" lon="35.176992">
<ele>653</ele>
<time>2020-12-02T00:45:32Z</time></trkpt>
<trkpt lat="31.745297" lon="35.177">
<ele>652</ele>
<time>2020-12-02T00:45:36Z</time></trkpt>
<trkpt lat="31.745294" lon="35.176748">
<ele>651</ele>
<time>2020-12-02T00:45:41Z</time></trkpt>
<trkpt lat="31.745187" lon="35.176399">
<ele>653</ele>
<time>2020-12-02T00:45:47Z</time></trkpt>
<trkpt lat="31.745126" lon="35.17631">
<ele>653</ele>
<time>2020-12-02T00:45:49Z</time></trkpt>
<trkpt lat="31.745126" lon="35.17631">
<ele>653</ele>
<time>2020-12-02T00:45:49Z</time></trkpt>
<trkpt lat="31.744998" lon="35.176123">
<ele>653</ele>
<time>2020-12-02T00:45:53Z</time></trkpt>
<trkpt lat="31.744688" lon="35.175836">
<ele>652</ele>
<time>2020-12-02T00:46:01Z</time></trkpt>
<trkpt lat="31.744579" lon="35.17599">
<ele>649</ele>
<time>2020-12-02T00:46:04Z</time></trkpt>
<trkpt lat="31.744525" lon="35.175924">
<ele>649</ele>
<time>2020-12-02T00:46:06Z</time></trkpt>
<trkpt lat="31.744309" lon="35.175751">
<ele>649</ele>
<time>2020-12-02T00:46:11Z</time></trkpt>
<trkpt lat="31.744309" lon="35.175751">
<ele>649</ele>
<time>2020-12-02T00:46:11Z</time></trkpt>
<trkpt lat="31.744171" lon="35.175585">
<ele>649</ele>
<time>2020-12-02T00:46:15Z</time></trkpt>
<trkpt lat="31.743895" lon="35.175102">
<ele>651</ele>
<time>2020-12-02T00:46:25Z</time></trkpt>
<trkpt lat="31.743746" lon="35.174782">
<ele>650</ele>
<time>2020-12-02T00:46:31Z</time></trkpt>
<trkpt lat="31.743688" lon="35.174552">
<ele>650</ele>
<time>2020-12-02T00:46:35Z</time></trkpt>
<trkpt lat="31.743688" lon="35.174552">
<ele>650</ele>
<time>2020-12-02T00:46:35Z</time></trkpt>
<trkpt lat="31.743565" lon="35.17393">
<ele>649</ele>
<time>2020-12-02T00:46:46Z</time></trkpt>
<trkpt lat="31.743597" lon="35.173116">
<ele>649</ele>
<time>2020-12-02T00:47:00Z</time></trkpt>
<trkpt lat="31.743597" lon="35.173116">
<ele>649</ele>
<time>2020-12-02T00:47:00Z</time></trkpt>
<trkpt lat="31.743632" lon="35.17225">
<ele>647</ele>
<time>2020-12-02T00:47:15Z</time></trkpt>
<trkpt lat="31.743711" lon="35.171206">
<ele>648</ele>
<time>2020-12-02T00:47:33Z</time></trkpt>
<trkpt lat="31.743711" lon="35.171206">
<ele>648</ele>
<time>2020-12-02T00:47:33Z</time></trkpt>
<trkpt lat="31.743696" lon="35.170911">
<ele>648</ele>
<time>2020-12-02T00:47:38Z</time></trkpt>
<trkpt lat="31.743605" lon="35.170428">
<ele>646</ele>
<time>2020-12-02T00:47:46Z</time></trkpt>
<trkpt lat="31.743595" lon="35.170155">
<ele>646</ele>
<time>2020-12-02T00:47:51Z</time></trkpt>
<trkpt lat="31.743628" lon="35.169784">
<ele>647</ele>
<time>2020-12-02T00:47:57Z</time></trkpt>
<trkpt lat="31.743628" lon="35.169784">
<ele>647</ele>
<time>2020-12-02T00:47:57Z</time></trkpt>
<trkpt lat="31.743685" lon="35.16913">
<ele>647</ele>
<time>2020-12-02T00:48:08Z</time></trkpt>
<trkpt lat="31.743855" lon="35.168178">
<ele>646</ele>
<time>2020-12-02T00:48:25Z</time></trkpt>
<trkpt lat="31.743886" lon="35.167752">
<ele>646</ele>
<time>2020-12-02T00:48:32Z</time></trkpt>
<trkpt lat="31.743896" lon="35.167322">
<ele>645</ele>
<time>2020-12-02T00:48:39Z</time></trkpt>
<trkpt lat="31.743897" lon="35.167279">
<ele>645</ele>
<time>2020-12-02T00:48:40Z</time></trkpt>
<trkpt lat="31.743897" lon="35.167279">
<ele>645</ele>
<time>2020-12-02T00:48:40Z</time></trkpt>
<trkpt lat="31.743907" lon="35.166638">
<ele>643</ele>
<time>2020-12-02T00:48:51Z</time></trkpt>
<trkpt lat="31.743951" lon="35.166129">
<ele>641</ele>
<time>2020-12-02T00:49:00Z</time></trkpt>
<trkpt lat="31.744026" lon="35.16581">
<ele>640</ele>
<time>2020-12-02T00:49:05Z</time></trkpt>
<trkpt lat="31.744232" lon="35.165346">
<ele>640</ele>
<time>2020-12-02T00:49:14Z</time></trkpt>
<trkpt lat="31.744335" lon="35.16519">
<ele>641</ele>
<time>2020-12-02T00:49:18Z</time></trkpt>
<trkpt lat="31.744516" lon="35.164979">
<ele>641</ele>
<time>2020-12-02T00:49:23Z</time></trkpt>
<trkpt lat="31.744752" lon="35.164741">
<ele>641</ele>
<time>2020-12-02T00:49:29Z</time></trkpt>
<trkpt lat="31.744752" lon="35.164741">
<ele>641</ele>
<time>2020-12-02T00:49:29Z</time></trkpt>
<trkpt lat="31.745691" lon="35.163795">
<ele>639</ele>
<time>2020-12-02T00:49:54Z</time></trkpt>
<trkpt lat="31.745949" lon="35.163579">
<ele>639</ele>
<time>2020-12-02T00:50:00Z</time></trkpt>
<trkpt lat="31.745996" lon="35.163634">
<ele>641</ele>
<time>2020-12-02T00:50:02Z</time></trkpt>
<trkpt lat="31.746026" lon="35.163645">
<ele>642</ele>
<time>2020-12-02T00:50:02Z</time></trkpt>
<trkpt lat="31.746088" lon="35.163631">
<ele>642</ele>
<time>2020-12-02T00:50:03Z</time></trkpt>
<trkpt lat="31.74613" lon="35.163578">
<ele>642</ele>
<time>2020-12-02T00:50:05Z</time></trkpt>
<trkpt lat="31.746139" lon="35.163542">
<ele>642</ele>
<time>2020-12-02T00:50:05Z</time></trkpt>
<trkpt lat="31.746126" lon="35.16347">
<ele>640</ele>
<time>2020-12-02T00:50:07Z</time></trkpt>
<trkpt lat="31.746359" lon="35.163275">
<ele>642</ele>
<time>2020-12-02T00:50:12Z</time></trkpt>
<trkpt lat="31.746469" lon="35.163111">
<ele>642</ele>
<time>2020-12-02T00:50:16Z</time></trkpt>
<trkpt lat="31.746701" lon="35.162561">
<ele>639</ele>
<time>2020-12-02T00:50:26Z</time></trkpt>
<trkpt lat="31.747057" lon="35.161975">
<ele>635</ele>
<time>2020-12-02T00:50:39Z</time></trkpt>
<trkpt lat="31.747162" lon="35.161879">
<ele>636</ele>
<time>2020-12-02T00:50:41Z</time></trkpt>
<trkpt lat="31.747257" lon="35.161822">
<ele>636</ele>
<time>2020-12-02T00:50:43Z</time></trkpt>
<trkpt lat="31.747512" lon="35.161703">
<ele>639</ele>
<time>2020-12-02T00:50:49Z</time></trkpt>
<trkpt lat="31.747512" lon="35.161703">
<ele>639</ele>
<time>2020-12-02T00:50:49Z</time></trkpt>
<trkpt lat="31.748126" lon="35.16151">
<ele>644</ele>
<time>2020-12-02T00:51:02Z</time></trkpt>
<trkpt lat="31.748233" lon="35.161443">
<ele>645</ele>
<time>2020-12-02T00:51:04Z</time></trkpt>
<trkpt lat="31.748267" lon="35.161346">
<ele>646</ele>
<time>2020-12-02T00:51:06Z</time></trkpt>
<trkpt lat="31.748247" lon="35.161262">
<ele>645</ele>
<time>2020-12-02T00:51:07Z</time></trkpt>
<trkpt lat="31.74793" lon="35.160851">
<ele>638</ele>
<time>2020-12-02T00:51:17Z</time></trkpt>
<trkpt lat="31.747849" lon="35.160707">
<ele>636</ele>
<time>2020-12-02T00:51:20Z</time></trkpt>
<trkpt lat="31.747832" lon="35.160597">
<ele>635</ele>
<time>2020-12-02T00:51:22Z</time></trkpt>
<trkpt lat="31.747848" lon="35.160443">
<ele>635</ele>
<time>2020-12-02T00:51:24Z</time></trkpt>
<trkpt lat="31.747914" lon="35.160242">
<ele>636</ele>
<time>2020-12-02T00:51:28Z</time></trkpt>
<trkpt lat="31.748036" lon="35.160086">
<ele>638</ele>
<time>2020-12-02T00:51:32Z</time></trkpt>
<trkpt lat="31.748392" lon="35.159808">
<ele>645</ele>
<time>2020-12-02T00:51:40Z</time></trkpt>
<trkpt lat="31.748466" lon="35.15969">
<ele>647</ele>
<time>2020-12-02T00:51:43Z</time></trkpt>
<trkpt lat="31.748476" lon="35.159649">
<ele>647</ele>
<time>2020-12-02T00:51:43Z</time></trkpt>
<trkpt lat="31.748483" lon="35.159531">
<ele>648</ele>
<time>2020-12-02T00:51:45Z</time></trkpt>
<trkpt lat="31.748439" lon="35.159433">
<ele>648</ele>
<time>2020-12-02T00:51:47Z</time></trkpt>
<trkpt lat="31.74832" lon="35.159311">
<ele>646</ele>
<time>2020-12-02T00:51:50Z</time></trkpt>
<trkpt lat="31.747953" lon="35.159022">
<ele>640</ele>
<time>2020-12-02T00:51:59Z</time></trkpt>
<trkpt lat="31.747678" lon="35.158849">
<ele>636</ele>
<time>2020-12-02T00:52:05Z</time></trkpt>
<trkpt lat="31.747611" lon="35.158782">
<ele>635</ele>
<time>2020-12-02T00:52:07Z</time></trkpt>
<trkpt lat="31.747351" lon="35.158372">
<ele>634</ele>
<time>2020-12-02T00:52:16Z</time></trkpt>
<trkpt lat="31.747325" lon="35.158264">
<ele>634</ele>
<time>2020-12-02T00:52:18Z</time></trkpt>
<trkpt lat="31.747322" lon="35.158116">
<ele>634</ele>
<time>2020-12-02T00:52:20Z</time></trkpt>
<trkpt lat="31.747341" lon="35.15793">
<ele>635</ele>
<time>2020-12-02T00:52:24Z</time></trkpt>
<trkpt lat="31.747406" lon="35.157772">
<ele>637</ele>
<time>2020-12-02T00:52:27Z</time></trkpt>
<trkpt lat="31.747583" lon="35.157508">
<ele>641</ele>
<time>2020-12-02T00:52:32Z</time></trkpt>
<trkpt lat="31.747592" lon="35.157409">
<ele>643</ele>
<time>2020-12-02T00:52:34Z</time></trkpt>
<trkpt lat="31.74757" lon="35.157359">
<ele>644</ele>
<time>2020-12-02T00:52:35Z</time></trkpt>
<trkpt lat="31.747507" lon="35.157311">
<ele>643</ele>
<time>2020-12-02T00:52:36Z</time></trkpt>
<trkpt lat="31.747337" lon="35.157267">
<ele>640</ele>
<time>2020-12-02T00:52:40Z</time></trkpt>
<trkpt lat="31.746965" lon="35.157114">
<ele>636</ele>
<time>2020-12-02T00:52:48Z</time></trkpt>
<trkpt lat="31.746871" lon="35.15701">
<ele>636</ele>
<time>2020-12-02T00:52:50Z</time></trkpt>
<trkpt lat="31.7467" lon="35.156696">
<ele>637</ele>
<time>2020-12-02T00:52:57Z</time></trkpt>
<trkpt lat="31.7467" lon="35.156696">
<ele>637</ele>
<time>2020-12-02T00:52:57Z</time></trkpt>
<trkpt lat="31.746583" lon="35.156536">
<ele>638</ele>
<time>2020-12-02T00:53:00Z</time></trkpt>
<trkpt lat="31.746476" lon="35.156442">
<ele>638</ele>
<time>2020-12-02T00:53:03Z</time></trkpt>
<trkpt lat="31.746027" lon="35.156118">
<ele>637</ele>
<time>2020-12-02T00:53:14Z</time></trkpt>
<trkpt lat="31.745642" lon="35.155775">
<ele>636</ele>
<time>2020-12-02T00:53:23Z</time></trkpt>
<trkpt lat="31.745089" lon="35.155181">
<ele>637</ele>
<time>2020-12-02T00:53:38Z</time></trkpt>
<trkpt lat="31.744839" lon="35.154928">
<ele>637</ele>
<time>2020-12-02T00:53:45Z</time></trkpt>
<trkpt lat="31.744604" lon="35.154718">
<ele>635</ele>
<time>2020-12-02T00:53:51Z</time></trkpt>
<trkpt lat="31.744462" lon="35.154558">
<ele>634</ele>
<time>2020-12-02T00:53:55Z</time></trkpt>
<trkpt lat="31.744373" lon="35.154356">
<ele>634</ele>
<time>2020-12-02T00:53:59Z</time></trkpt>
<trkpt lat="31.744335" lon="35.154154">
<ele>636</ele>
<time>2020-12-02T00:54:02Z</time></trkpt>
<trkpt lat="31.744321" lon="35.153904">
<ele>636</ele>
<time>2020-12-02T00:54:06Z</time></trkpt>
<trkpt lat="31.744365" lon="35.153728">
<ele>638</ele>
<time>2020-12-02T00:54:10Z</time></trkpt>
<trkpt lat="31.74455" lon="35.153319">
<ele>645</ele>
<time>2020-12-02T00:54:17Z</time></trkpt>
<trkpt lat="31.744564" lon="35.153237">
<ele>647</ele>
<time>2020-12-02T00:54:19Z</time></trkpt>
<trkpt lat="31.744556" lon="35.153187">
<ele>648</ele>
<time>2020-12-02T00:54:20Z</time></trkpt>
<trkpt lat="31.744522" lon="35.153119">
<ele>648</ele>
<time>2020-12-02T00:54:21Z</time></trkpt>
<trkpt lat="31.744431" lon="35.153065">
<ele>648</ele>
<time>2020-12-02T00:54:23Z</time></trkpt>
<trkpt lat="31.744342" lon="35.153056">
<ele>646</ele>
<time>2020-12-02T00:54:25Z</time></trkpt>
<trkpt lat="31.744193" lon="35.153078">
<ele>642</ele>
<time>2020-12-02T00:54:28Z</time></trkpt>
<trkpt lat="31.7438" lon="35.153198">
<ele>635</ele>
<time>2020-12-02T00:54:36Z</time></trkpt>
<trkpt lat="31.743595" lon="35.15321">
<ele>633</ele>
<time>2020-12-02T00:54:40Z</time></trkpt>
<trkpt lat="31.743033" lon="35.153117">
<ele>632</ele>
<time>2020-12-02T00:54:52Z</time></trkpt>
<trkpt lat="31.74272" lon="35.153127">
<ele>629</ele>
<time>2020-12-02T00:54:58Z</time></trkpt>
<trkpt lat="31.742527" lon="35.153087">
<ele>629</ele>
<time>2020-12-02T00:55:02Z</time></trkpt>
<trkpt lat="31.742245" lon="35.15293">
<ele>630</ele>
<time>2020-12-02T00:55:08Z</time></trkpt>
<trkpt lat="31.742245" lon="35.15293">
<ele>630</ele>
<time>2020-12-02T00:55:08Z</time></trkpt>
<trkpt lat="31.742011" lon="35.152852">
<ele>630</ele>
<time>2020-12-02T00:55:13Z</time></trkpt>
<trkpt lat="31.741662" lon="35.152845">
<ele>627</ele>
<time>2020-12-02T00:55:20Z</time></trkpt>
<trkpt lat="31.74155" lon="35.152816">
<ele>626</ele>
<time>2020-12-02T00:55:22Z</time></trkpt>
<trkpt lat="31.741487" lon="35.152778">
<ele>626</ele>
<time>2020-12-02T00:55:24Z</time></trkpt>
<trkpt lat="31.740952" lon="35.152289">
<ele>629</ele>
<time>2020-12-02T00:55:37Z</time></trkpt>
<trkpt lat="31.740864" lon="35.152241">
<ele>628</ele>
<time>2020-12-02T00:55:39Z</time></trkpt>
<trkpt lat="31.74076" lon="35.152229">
<ele>627</ele>
<time>2020-12-02T00:55:41Z</time></trkpt>
<trkpt lat="31.740638" lon="35.152253">
<ele>624</ele>
<time>2020-12-02T00:55:44Z</time></trkpt>
<trkpt lat="31.74057" lon="35.152247">
<ele>623</ele>
<time>2020-12-02T00:55:45Z</time></trkpt>
<trkpt lat="31.740508" lon="35.152209">
<ele>622</ele>
<time>2020-12-02T00:55:46Z</time></trkpt>
<trkpt lat="31.740205" lon="35.15185">
<ele>622</ele>
<time>2020-12-02T00:55:55Z</time></trkpt>
<trkpt lat="31.740043" lon="35.151703">
<ele>621</ele>
<time>2020-12-02T00:55:59Z</time></trkpt>
<trkpt lat="31.739916" lon="35.151631">
<ele>620</ele>
<time>2020-12-02T00:56:02Z</time></trkpt>
<trkpt lat="31.739851" lon="35.151567">
<ele>619</ele>
<time>2020-12-02T00:56:04Z</time></trkpt>
<trkpt lat="31.739772" lon="35.151426">
<ele>620</ele>
<time>2020-12-02T00:56:07Z</time></trkpt>
<trkpt lat="31.739604" lon="35.151032">
<ele>621</ele>
<time>2020-12-02T00:56:14Z</time></trkpt>
<trkpt lat="31.739554" lon="35.150934">
<ele>621</ele>
<time>2020-12-02T00:56:16Z</time></trkpt>
<trkpt lat="31.739504" lon="35.150874">
<ele>621</ele>
<time>2020-12-02T00:56:17Z</time></trkpt>
<trkpt lat="31.739128" lon="35.150635">
<ele>615</ele>
<time>2020-12-02T00:56:26Z</time></trkpt>
<trkpt lat="31.738846" lon="35.150538">
<ele>611</ele>
<time>2020-12-02T00:56:32Z</time></trkpt>
<trkpt lat="31.738712" lon="35.150437">
<ele>609</ele>
<time>2020-12-02T00:56:35Z</time></trkpt>
<trkpt lat="31.738567" lon="35.1502">
<ele>608</ele>
<time>2020-12-02T00:56:40Z</time></trkpt>
<trkpt lat="31.738329" lon="35.149595">
<ele>602</ele>
<time>2020-12-02T00:56:51Z</time></trkpt>
<trkpt lat="31.738323" lon="35.149389">
<ele>601</ele>
<time>2020-12-02T00:56:55Z</time></trkpt>
<trkpt lat="31.738376" lon="35.149147">
<ele>602</ele>
<time>2020-12-02T00:56:59Z</time></trkpt>
<trkpt lat="31.738377" lon="35.149046">
<ele>602</ele>
<time>2020-12-02T00:57:01Z</time></trkpt>
<trkpt lat="31.738347" lon="35.148948">
<ele>601</ele>
<time>2020-12-02T00:57:03Z</time></trkpt>
<trkpt lat="31.738203" lon="35.148696">
<ele>600</ele>
<time>2020-12-02T00:57:08Z</time></trkpt>
<trkpt lat="31.737962" lon="35.148334">
<ele>597</ele>
<time>2020-12-02T00:57:16Z</time></trkpt>
<trkpt lat="31.7378" lon="35.147964">
<ele>601</ele>
<time>2020-12-02T00:57:23Z</time></trkpt>
<trkpt lat="31.7378" lon="35.147964">
<ele>601</ele>
<time>2020-12-02T00:57:23Z</time></trkpt>
<trkpt lat="31.737716" lon="35.147774">
<ele>602</ele>
<time>2020-12-02T00:57:26Z</time></trkpt>
<trkpt lat="31.73757" lon="35.147509">
<ele>602</ele>
<time>2020-12-02T00:57:32Z</time></trkpt>
<trkpt lat="31.737491" lon="35.147407">
<ele>603</ele>
<time>2020-12-02T00:57:34Z</time></trkpt>
<trkpt lat="31.737374" lon="35.147312">
<ele>605</ele>
<time>2020-12-02T00:57:37Z</time></trkpt>
<trkpt lat="31.736957" lon="35.147069">
<ele>606</ele>
<time>2020-12-02T00:57:46Z</time></trkpt>
<trkpt lat="31.73639" lon="35.146852">
<ele>601</ele>
<time>2020-12-02T00:57:58Z</time></trkpt>
<trkpt lat="31.736281" lon="35.146783">
<ele>600</ele>
<time>2020-12-02T00:58:01Z</time></trkpt>
<trkpt lat="31.736126" lon="35.146596">
<ele>599</ele>
<time>2020-12-02T00:58:05Z</time></trkpt>
<trkpt lat="31.736063" lon="35.146448">
<ele>600</ele>
<time>2020-12-02T00:58:08Z</time></trkpt>
<trkpt lat="31.736009" lon="35.146197">
<ele>603</ele>
<time>2020-12-02T00:58:12Z</time></trkpt>
<trkpt lat="31.735908" lon="35.145894">
<ele>604</ele>
<time>2020-12-02T00:58:18Z</time></trkpt>
<trkpt lat="31.73586" lon="35.145794">
<ele>604</ele>
<time>2020-12-02T00:58:20Z</time></trkpt>
<trkpt lat="31.735569" lon="35.145353">
<ele>610</ele>
<time>2020-12-02T00:58:29Z</time></trkpt>
<trkpt lat="31.735483" lon="35.145247">
<ele>610</ele>
<time>2020-12-02T00:58:32Z</time></trkpt>
<trkpt lat="31.735318" lon="35.145102">
<ele>607</ele>
<time>2020-12-02T00:58:36Z</time></trkpt>
<trkpt lat="31.734959" lon="35.144891">
<ele>599</ele>
<time>2020-12-02T00:58:44Z</time></trkpt>
<trkpt lat="31.734741" lon="35.144717">
<ele>599</ele>
<time>2020-12-02T00:58:49Z</time></trkpt>
<trkpt lat="31.734675" lon="35.144587">
<ele>600</ele>
<time>2020-12-02T00:58:52Z</time></trkpt>
<trkpt lat="31.734683" lon="35.144356">
<ele>605</ele>
<time>2020-12-02T00:58:56Z</time></trkpt>
<trkpt lat="31.734575" lon="35.144061">
<ele>606</ele>
<time>2020-12-02T00:59:01Z</time></trkpt>
<trkpt lat="31.734358" lon="35.142794">
<ele>605</ele>
<time>2020-12-02T00:59:23Z</time></trkpt>
<trkpt lat="31.734241" lon="35.142562">
<ele>600</ele>
<time>2020-12-02T00:59:28Z</time></trkpt>
<trkpt lat="31.734141" lon="35.142268">
<ele>600</ele>
<time>2020-12-02T00:59:33Z</time></trkpt>
<trkpt lat="31.734094" lon="35.142052">
<ele>602</ele>
<time>2020-12-02T00:59:37Z</time></trkpt>
<trkpt lat="31.734094" lon="35.142052">
<ele>602</ele>
<time>2020-12-02T00:59:37Z</time></trkpt>
<trkpt lat="31.734027" lon="35.141748">
<ele>604</ele>
<time>2020-12-02T00:59:43Z</time></trkpt>
<trkpt lat="31.733898" lon="35.141434">
<ele>605</ele>
<time>2020-12-02T00:59:49Z</time></trkpt>
<trkpt lat="31.733753" lon="35.141128">
<ele>605</ele>
<time>2020-12-02T00:59:55Z</time></trkpt>
<trkpt lat="31.733609" lon="35.140896">
<ele>604</ele>
<time>2020-12-02T00:59:59Z</time></trkpt>
<trkpt lat="31.733446" lon="35.140496">
<ele>603</ele>
<time>2020-12-02T01:00:07Z</time></trkpt>
<trkpt lat="31.733003" lon="35.139808">
<ele>595</ele>
<time>2020-12-02T01:00:22Z</time></trkpt>
<trkpt lat="31.732995" lon="35.139673">
<ele>592</ele>
<time>2020-12-02T01:00:24Z</time></trkpt>
<trkpt lat="31.733104" lon="35.139587">
<ele>592</ele>
<time>2020-12-02T01:00:27Z</time></trkpt>
<trkpt lat="31.73332" lon="35.139491">
<ele>593</ele>
<time>2020-12-02T01:00:31Z</time></trkpt>
<trkpt lat="31.733553" lon="35.13945">
<ele>596</ele>
<time>2020-12-02T01:00:36Z</time></trkpt>
<trkpt lat="31.733725" lon="35.13946">
<ele>598</ele>
<time>2020-12-02T01:00:39Z</time></trkpt>
<trkpt lat="31.734456" lon="35.139228">
<ele>601</ele>
<time>2020-12-02T01:00:55Z</time></trkpt>
<trkpt lat="31.734638" lon="35.139139">
<ele>600</ele>
<time>2020-12-02T01:00:59Z</time></trkpt>
<trkpt lat="31.734904" lon="35.139095">
<ele>602</ele>
<time>2020-12-02T01:01:04Z</time></trkpt>
<trkpt lat="31.735577" lon="35.139068">
<ele>608</ele>
<time>2020-12-02T01:01:17Z</time></trkpt>
<trkpt lat="31.735976" lon="35.139027">
<ele>612</ele>
<time>2020-12-02T01:01:25Z</time></trkpt>
<trkpt lat="31.736494" lon="35.138896">
<ele>617</ele>
<time>2020-12-02T01:01:36Z</time></trkpt>
<trkpt lat="31.736643" lon="35.138874">
<ele>619</ele>
<time>2020-12-02T01:01:39Z</time></trkpt>
<trkpt lat="31.73712" lon="35.138871">
<ele>626</ele>
<time>2020-12-02T01:01:49Z</time></trkpt>
<trkpt lat="31.737276" lon="35.138852">
<ele>628</ele>
<time>2020-12-02T01:01:52Z</time></trkpt>
<trkpt lat="31.737276" lon="35.138852">
<ele>628</ele>
<time>2020-12-02T01:01:52Z</time></trkpt>
<trkpt lat="31.737734" lon="35.138798">
<ele>637</ele>
<time>2020-12-02T01:02:01Z</time></trkpt>
<trkpt lat="31.737962" lon="35.138828">
<ele>644</ele>
<time>2020-12-02T01:02:06Z</time></trkpt>
<trkpt lat="31.73803" lon="35.138818">
<ele>645</ele>
<time>2020-12-02T01:02:07Z</time></trkpt>
<trkpt lat="31.738093" lon="35.138771">
<ele>646</ele>
<time>2020-12-02T01:02:08Z</time></trkpt>
<trkpt lat="31.738131" lon="35.13866">
<ele>646</ele>
<time>2020-12-02T01:02:10Z</time></trkpt>
<trkpt lat="31.738118" lon="35.13858">
<ele>645</ele>
<time>2020-12-02T01:02:12Z</time></trkpt>
<trkpt lat="31.73799" lon="35.138329">
<ele>637</ele>
<time>2020-12-02T01:02:17Z</time></trkpt>
<trkpt lat="31.73793" lon="35.13811">
<ele>635</ele>
<time>2020-12-02T01:02:21Z</time></trkpt>
<trkpt lat="31.7379" lon="35.137907">
<ele>634</ele>
<time>2020-12-02T01:02:24Z</time></trkpt>
<trkpt lat="31.737894" lon="35.137751">
<ele>634</ele>
<time>2020-12-02T01:02:27Z</time></trkpt>
<trkpt lat="31.737912" lon="35.137607">
<ele>635</ele>
<time>2020-12-02T01:02:29Z</time></trkpt>
<trkpt lat="31.738073" lon="35.13702">
<ele>641</ele>
<time>2020-12-02T01:02:40Z</time></trkpt>
<trkpt lat="31.738115" lon="35.136789">
<ele>642</ele>
<time>2020-12-02T01:02:44Z</time></trkpt>
<trkpt lat="31.738321" lon="35.136145">
<ele>651</ele>
<time>2020-12-02T01:02:56Z</time></trkpt>
<trkpt lat="31.738381" lon="35.135712">
<ele>653</ele>
<time>2020-12-02T01:03:03Z</time></trkpt>
<trkpt lat="31.738412" lon="35.135286">
<ele>654</ele>
<time>2020-12-02T01:03:10Z</time></trkpt>
<trkpt lat="31.73839" lon="35.134553">
<ele>656</ele>
<time>2020-12-02T01:03:23Z</time></trkpt>
<trkpt lat="31.738408" lon="35.134131">
<ele>659</ele>
<time>2020-12-02T01:03:30Z</time></trkpt>
<trkpt lat="31.738405" lon="35.133612">
<ele>663</ele>
<time>2020-12-02T01:03:39Z</time></trkpt>
<trkpt lat="31.738385" lon="35.133205">
<ele>665</ele>
<time>2020-12-02T01:03:46Z</time></trkpt>
<trkpt lat="31.738425" lon="35.13283">
<ele>665</ele>
<time>2020-12-02T01:03:52Z</time></trkpt>
<trkpt lat="31.738481" lon="35.132532">
<ele>665</ele>
<time>2020-12-02T01:03:58Z</time></trkpt>
<trkpt lat="31.738551" lon="35.132374">
<ele>666</ele>
<time>2020-12-02T01:04:01Z</time></trkpt>
<trkpt lat="31.738669" lon="35.132232">
<ele>667</ele>
<time>2020-12-02T01:04:04Z</time></trkpt>
<trkpt lat="31.738852" lon="35.132063">
<ele>670</ele>
<time>2020-12-02T01:04:09Z</time></trkpt>
<trkpt lat="31.738981" lon="35.131967">
<ele>671</ele>
<time>2020-12-02T01:04:12Z</time></trkpt>
<trkpt lat="31.739103" lon="35.131902">
<ele>672</ele>
<time>2020-12-02T01:04:14Z</time></trkpt>
<trkpt lat="31.739314" lon="35.13186">
<ele>673</ele>
<time>2020-12-02T01:04:19Z</time></trkpt>
<trkpt lat="31.739389" lon="35.13187">
<ele>673</ele>
<time>2020-12-02T01:04:20Z</time></trkpt>
<trkpt lat="31.739389" lon="35.13187">
<ele>673</ele>
<time>2020-12-02T01:04:20Z</time></trkpt>
<trkpt lat="31.73954" lon="35.131921">
<ele>674</ele>
<time>2020-12-02T01:04:23Z</time></trkpt>
<trkpt lat="31.739728" lon="35.132026">
<ele>676</ele>
<time>2020-12-02T01:04:28Z</time></trkpt>
<trkpt lat="31.740034" lon="35.132251">
<ele>682</ele>
<time>2020-12-02T01:04:35Z</time></trkpt>
<trkpt lat="31.740157" lon="35.132456">
<ele>685</ele>
<time>2020-12-02T01:04:39Z</time></trkpt>
<trkpt lat="31.740373" lon="35.13268">
<ele>687</ele>
<time>2020-12-02T01:04:45Z</time></trkpt>
<trkpt lat="31.740719" lon="35.133133">
<ele>696</ele>
<time>2020-12-02T01:04:55Z</time></trkpt>
<trkpt lat="31.741064" lon="35.133497">
<ele>701</ele>
<time>2020-12-02T01:05:04Z</time></trkpt>
<trkpt lat="31.741194" lon="35.133608">
<ele>702</ele>
<time>2020-12-02T01:05:08Z</time></trkpt>
<trkpt lat="31.741504" lon="35.133797">
<ele>704</ele>
<time>2020-12-02T01:05:15Z</time></trkpt>
<trkpt lat="31.742236" lon="35.134132">
<ele>707</ele>
<time>2020-12-02T01:05:30Z</time></trkpt>
<trkpt lat="31.7426" lon="35.134339">
<ele>710</ele>
<time>2020-12-02T01:05:39Z</time></trkpt>
<trkpt lat="31.742771" lon="35.134457">
<ele>711</ele>
<time>2020-12-02T01:05:43Z</time></trkpt>
<trkpt lat="31.742771" lon="35.134457">
<ele>711</ele>
<time>2020-12-02T01:05:43Z</time></trkpt>
<trkpt lat="31.743363" lon="35.134887">
<ele>718</ele>
<time>2020-12-02T01:05:56Z</time></trkpt>
<trkpt lat="31.743776" lon="35.135202">
<ele>724</ele>
<time>2020-12-02T01:06:06Z</time></trkpt>
<trkpt lat="31.743895" lon="35.135273">
<ele>724</ele>
<time>2020-12-02T01:06:09Z</time></trkpt>
<trkpt lat="31.744242" lon="35.135412">
<ele>725</ele>
<time>2020-12-02T01:06:16Z</time></trkpt>
<trkpt lat="31.744616" lon="35.135502">
<ele>727</ele>
<time>2020-12-02T01:06:24Z</time></trkpt>
<trkpt lat="31.744689" lon="35.135538">
<ele>727</ele>
<time>2020-12-02T01:06:26Z</time></trkpt>
<trkpt lat="31.744798" lon="35.135631">
<ele>729</ele>
<time>2020-12-02T01:06:28Z</time></trkpt>
<trkpt lat="31.744759" lon="35.135688">
<ele>731</ele>
<time>2020-12-02T01:06:30Z</time></trkpt>
<trkpt lat="31.744604" lon="35.135704">
<ele>731</ele>
<time>2020-12-02T01:06:33Z</time></trkpt>
<trkpt lat="31.743974" lon="35.135641">
<ele>733</ele>
<time>2020-12-02T01:06:45Z</time></trkpt>
<trkpt lat="31.743448" lon="35.135561">
<ele>736</ele>
<time>2020-12-02T01:06:56Z</time></trkpt>
<trkpt lat="31.742453" lon="35.135374">
<ele>740</ele>
<time>2020-12-02T01:07:16Z</time></trkpt>
<trkpt lat="31.742453" lon="35.135374">
<ele>740</ele>
<time>2020-12-02T01:07:16Z</time></trkpt>
<trkpt lat="31.741998" lon="35.13531">
<ele>741</ele>
<time>2020-12-02T01:07:25Z</time></trkpt>
<trkpt lat="31.741136" lon="35.135246">
<ele>742</ele>
<time>2020-12-02T01:07:43Z</time></trkpt>
<trkpt lat="31.740926" lon="35.1352">
<ele>742</ele>
<time>2020-12-02T01:07:47Z</time></trkpt>
<trkpt lat="31.740812" lon="35.135199">
<ele>742</ele>
<time>2020-12-02T01:07:49Z</time></trkpt>
<trkpt lat="31.740737" lon="35.135224">
<ele>741</ele>
<time>2020-12-02T01:07:51Z</time></trkpt>
<trkpt lat="31.740627" lon="35.135414">
<ele>742</ele>
<time>2020-12-02T01:07:55Z</time></trkpt>
<trkpt lat="31.741119" lon="35.135571">
<ele>748</ele>
<time>2020-12-02T01:08:05Z</time></trkpt>
<trkpt lat="31.74152" lon="35.135755">
<ele>753</ele>
<time>2020-12-02T01:08:13Z</time></trkpt>
<trkpt lat="31.742051" lon="35.135938">
<ele>756</ele>
<time>2020-12-02T01:08:25Z</time></trkpt>
<trkpt lat="31.742605" lon="35.136234">
<ele>762</ele>
<time>2020-12-02T01:08:37Z</time></trkpt>
<trkpt lat="31.742605" lon="35.136234">
<ele>762</ele>
<time>2020-12-02T01:08:37Z</time></trkpt>
<trkpt lat="31.743134" lon="35.136488">
<ele>765</ele>
<time>2020-12-02T01:08:48Z</time></trkpt>
<trkpt lat="31.743613" lon="35.136888">
<ele>772</ele>
<time>2020-12-02T01:09:00Z</time></trkpt>
<trkpt lat="31.743819" lon="35.137012">
<ele>774</ele>
<time>2020-12-02T01:09:05Z</time></trkpt>
<trkpt lat="31.743956" lon="35.137054">
<ele>775</ele>
<time>2020-12-02T01:09:07Z</time></trkpt>
<trkpt lat="31.744624" lon="35.137046">
<ele>778</ele>
<time>2020-12-02T01:09:21Z</time></trkpt>
<trkpt lat="31.744958" lon="35.1371">
<ele>782</ele>
<time>2020-12-02T01:09:28Z</time></trkpt>
<trkpt lat="31.745635" lon="35.137283">
<ele>789</ele>
<time>2020-12-02T01:09:42Z</time></trkpt>
<trkpt lat="31.745849" lon="35.137358">
<ele>792</ele>
<time>2020-12-02T01:09:46Z</time></trkpt>
<trkpt lat="31.746289" lon="35.137561">
<ele>795</ele>
<time>2020-12-02T01:09:55Z</time></trkpt>
<trkpt lat="31.746416" lon="35.137636">
<ele>796</ele>
<time>2020-12-02T01:09:58Z</time></trkpt>
<trkpt lat="31.746608" lon="35.137606">
<ele>793</ele>
<time>2020-12-02T01:10:02Z</time></trkpt>
<trkpt lat="31.746989" lon="35.137661">
<ele>794</ele>
<time>2020-12-02T01:10:10Z</time></trkpt>
<trkpt lat="31.747327" lon="35.137781">
<ele>796</ele>
<time>2020-12-02T01:10:17Z</time></trkpt>
<trkpt lat="31.747452" lon="35.137795">
<ele>796</ele>
<time>2020-12-02T01:10:19Z</time></trkpt>
<trkpt lat="31.747537" lon="35.137773">
<ele>795</ele>
<time>2020-12-02T01:10:21Z</time></trkpt>
<trkpt lat="31.747836" lon="35.137545">
<ele>796</ele>
<time>2020-12-02T01:10:28Z</time></trkpt>
<trkpt lat="31.748274" lon="35.137272">
<ele>798</ele>
<time>2020-12-02T01:10:38Z</time></trkpt>
<trkpt lat="31.748274" lon="35.137272">
<ele>798</ele>
<time>2020-12-02T01:10:38Z</time></trkpt>
<trkpt lat="31.748437" lon="35.137171">
<ele>799</ele>
<time>2020-12-02T01:10:42Z</time></trkpt>
<trkpt lat="31.748659" lon="35.137065">
<ele>800</ele>
<time>2020-12-02T01:10:47Z</time></trkpt>
<trkpt lat="31.748966" lon="35.137001">
<ele>803</ele>
<time>2020-12-02T01:10:53Z</time></trkpt>
<trkpt lat="31.749064" lon="35.136997">
<ele>804</ele>
<time>2020-12-02T01:10:55Z</time></trkpt>
<trkpt lat="31.749265" lon="35.137037">
<ele>808</ele>
<time>2020-12-02T01:10:59Z</time></trkpt>
<trkpt lat="31.749416" lon="35.137039">
<ele>810</ele>
<time>2020-12-02T01:11:02Z</time></trkpt>
<trkpt lat="31.749939" lon="35.13687">
<ele>815</ele>
<time>2020-12-02T01:11:13Z</time></trkpt>
<trkpt lat="31.750015" lon="35.13682">
<ele>816</ele>
<time>2020-12-02T01:11:15Z</time></trkpt>
<trkpt lat="31.750087" lon="35.13671">
<ele>816</ele>
<time>2020-12-02T01:11:17Z</time></trkpt>
<trkpt lat="31.750087" lon="35.13671">
<ele>816</ele>
<time>2020-12-02T01:11:17Z</time></trkpt>
<trkpt lat="31.750111" lon="35.136615">
<ele>815</ele>
<time>2020-12-02T01:11:19Z</time></trkpt>
<trkpt lat="31.750099" lon="35.136483">
<ele>815</ele>
<time>2020-12-02T01:11:21Z</time></trkpt>
<trkpt lat="31.749936" lon="35.13554">
<ele>814</ele>
<time>2020-12-02T01:11:37Z</time></trkpt>
<trkpt lat="31.749951" lon="35.135359">
<ele>815</ele>
<time>2020-12-02T01:11:41Z</time></trkpt>
<trkpt lat="31.749546" lon="35.135376">
<ele>815</ele>
<time>2020-12-02T01:11:49Z</time></trkpt>
<trkpt lat="31.749546" lon="35.135376">
<ele>815</ele>
<time>2020-12-02T01:11:49Z</time></trkpt>
<trkpt lat="31.749392" lon="35.135383">
<ele>815</ele>
<time>2020-12-02T01:11:52Z</time></trkpt>
<trkpt lat="31.749212" lon="35.135361">
<ele>815</ele>
<time>2020-12-02T01:11:55Z</time></trkpt>
<trkpt lat="31.748896" lon="35.135268">
<ele>814</ele>
<time>2020-12-02T01:12:02Z</time></trkpt>
<trkpt lat="31.748764" lon="35.135196">
<ele>814</ele>
<time>2020-12-02T01:12:05Z</time></trkpt>
<trkpt lat="31.748615" lon="35.135075">
<ele>815</ele>
<time>2020-12-02T01:12:08Z</time></trkpt>
<trkpt lat="31.748552" lon="35.134971">
<ele>816</ele>
<time>2020-12-02T01:12:11Z</time></trkpt>
<trkpt lat="31.748514" lon="35.134807">
<ele>815</ele>
<time>2020-12-02T01:12:14Z</time></trkpt>
<trkpt lat="31.748525" lon="35.134638">
<ele>814</ele>
<time>2020-12-02T01:12:16Z</time></trkpt>
<trkpt lat="31.748573" lon="35.134523">
<ele>814</ele>
<time>2020-12-02T01:12:19Z</time></trkpt>
<trkpt lat="31.748618" lon="35.134457">
<ele>814</ele>
<time>2020-12-02T01:12:20Z</time></trkpt>
<trkpt lat="31.7488" lon="35.134316">
<ele>815</ele>
<time>2020-12-02T01:12:24Z</time></trkpt>
<trkpt lat="31.748964" lon="35.134225">
<ele>817</ele>
<time>2020-12-02T01:12:28Z</time></trkpt>
<trkpt lat="31.749175" lon="35.134165">
<ele>819</ele>
<time>2020-12-02T01:12:32Z</time></trkpt>
<trkpt lat="31.749284" lon="35.134164">
<ele>817</ele>
<time>2020-12-02T01:12:35Z</time></trkpt>
<trkpt lat="31.749389" lon="35.134194">
<ele>816</ele>
<time>2020-12-02T01:12:37Z</time></trkpt>
<trkpt lat="31.749454" lon="35.134232">
<ele>815</ele>
<time>2020-12-02T01:12:38Z</time></trkpt>
<trkpt lat="31.749563" lon="35.134344">
<ele>814</ele>
<time>2020-12-02T01:12:41Z</time></trkpt>
<trkpt lat="31.749622" lon="35.13445">
<ele>814</ele>
<time>2020-12-02T01:12:43Z</time></trkpt>
<trkpt lat="31.74964" lon="35.134566">
<ele>815</ele>
<time>2020-12-02T01:12:45Z</time></trkpt>
<trkpt lat="31.749639" lon="35.134566">
<ele>815</ele>
<time>2020-12-02T01:12:45Z</time></trkpt>
<trkpt lat="31.749628" lon="35.13466">
<ele>816</ele>
<time>2020-12-02T01:12:47Z</time></trkpt>
<trkpt lat="31.749566" lon="35.134814">
<ele>817</ele>
<time>2020-12-02T01:12:50Z</time></trkpt>
<trkpt lat="31.749474" lon="35.134946">
<ele>819</ele>
<time>2020-12-02T01:12:53Z</time></trkpt>
<trkpt lat="31.749418" lon="35.135">
<ele>820</ele>
<time>2020-12-02T01:12:54Z</time></trkpt>
<trkpt lat="31.749288" lon="35.135077">
<ele>820</ele>
<time>2020-12-02T01:12:57Z</time></trkpt>
<trkpt lat="31.749183" lon="35.135105">
<ele>820</ele>
<time>2020-12-02T01:12:59Z</time></trkpt>
<trkpt lat="31.749039" lon="35.135117">
<ele>819</ele>
<time>2020-12-02T01:13:02Z</time></trkpt>
<trkpt lat="31.748931" lon="35.135102">
<ele>818</ele>
<time>2020-12-02T01:13:04Z</time></trkpt>
<trkpt lat="31.748831" lon="35.135052">
<ele>818</ele>
<time>2020-12-02T01:13:06Z</time></trkpt>
<trkpt lat="31.748831" lon="35.135053">
<ele>818</ele>
<time>2020-12-02T01:13:06Z</time></trkpt>
<trkpt lat="31.74874" lon="35.134985">
<ele>818</ele>
<time>2020-12-02T01:13:09Z</time></trkpt>
<trkpt lat="31.748672" lon="35.134884">
<ele>817</ele>
<time>2020-12-02T01:13:11Z</time></trkpt>
<trkpt lat="31.748652" lon="35.134803">
<ele>816</ele>
<time>2020-12-02T01:13:12Z</time></trkpt>
<trkpt lat="31.74866" lon="35.134719">
<ele>816</ele>
<time>2020-12-02T01:13:14Z</time></trkpt>
<trkpt lat="31.748688" lon="35.13464">
<ele>816</ele>
<time>2020-12-02T01:13:15Z</time></trkpt>
<trkpt lat="31.748732" lon="35.134572">
<ele>816</ele>
<time>2020-12-02T01:13:17Z</time></trkpt>
<trkpt lat="31.748922" lon="35.13445">
<ele>817</ele>
<time>2020-12-02T01:13:21Z</time></trkpt>
<trkpt lat="31.74903" lon="35.134445">
<ele>818</ele>
<time>2020-12-02T01:13:23Z</time></trkpt>
<trkpt lat="31.749164" lon="35.134407">
<ele>820</ele>
<time>2020-12-02T01:13:26Z</time></trkpt>
<trkpt lat="31.749164" lon="35.134407">
<ele>820</ele>
<time>2020-12-02T01:13:26Z</time></trkpt>
<trkpt lat="31.74903" lon="35.134445">
<ele>818</ele>
<time>2020-12-02T01:13:29Z</time></trkpt>
<trkpt lat="31.748922" lon="35.13445">
<ele>817</ele>
<time>2020-12-02T01:13:31Z</time></trkpt>
<trkpt lat="31.748732" lon="35.134572">
<ele>816</ele>
<time>2020-12-02T01:13:35Z</time></trkpt>
<trkpt lat="31.748688" lon="35.13464">
<ele>816</ele>
<time>2020-12-02T01:13:37Z</time></trkpt>
<trkpt lat="31.74866" lon="35.134719">
<ele>816</ele>
<time>2020-12-02T01:13:38Z</time></trkpt>
<trkpt lat="31.748652" lon="35.134803">
<ele>816</ele>
<time>2020-12-02T01:13:40Z</time></trkpt>
<trkpt lat="31.748672" lon="35.134884">
<ele>817</ele>
<time>2020-12-02T01:13:41Z</time></trkpt>
<trkpt lat="31.74874" lon="35.134985">
<ele>818</ele>
<time>2020-12-02T01:13:43Z</time></trkpt>
<trkpt lat="31.748797" lon="35.135036">
<ele>818</ele>
<time>2020-12-02T01:13:45Z</time></trkpt>
<trkpt lat="31.748931" lon="35.135102">
<ele>818</ele>
<time>2020-12-02T01:13:47Z</time></trkpt>
<trkpt lat="31.749039" lon="35.135117">
<ele>819</ele>
<time>2020-12-02T01:13:50Z</time></trkpt>
<trkpt lat="31.749163" lon="35.135107">
<ele>820</ele>
<time>2020-12-02T01:13:52Z</time></trkpt>
<trkpt lat="31.749163" lon="35.135107">
<ele>820</ele>
<time>2020-12-02T01:13:52Z</time></trkpt>
<trkpt lat="31.749288" lon="35.135077">
<ele>820</ele>
<time>2020-12-02T01:13:55Z</time></trkpt>
<trkpt lat="31.749418" lon="35.135">
<ele>820</ele>
<time>2020-12-02T01:13:58Z</time></trkpt>
<trkpt lat="31.749474" lon="35.134946">
<ele>819</ele>
<time>2020-12-02T01:13:59Z</time></trkpt>
<trkpt lat="31.749566" lon="35.134814">
<ele>817</ele>
<time>2020-12-02T01:14:02Z</time></trkpt>
<trkpt lat="31.749628" lon="35.13466">
<ele>816</ele>
<time>2020-12-02T01:14:05Z</time></trkpt>
<trkpt lat="31.749641" lon="35.134576">
<ele>815</ele>
<time>2020-12-02T01:14:06Z</time></trkpt>
<trkpt lat="31.749622" lon="35.13445">
<ele>814</ele>
<time>2020-12-02T01:14:09Z</time></trkpt>
<trkpt lat="31.749563" lon="35.134344">
<ele>814</ele>
<time>2020-12-02T01:14:11Z</time></trkpt>
<trkpt lat="31.749454" lon="35.134232">
<ele>815</ele>
<time>2020-12-02T01:14:14Z</time></trkpt>
<trkpt lat="31.749389" lon="35.134194">
<ele>816</ele>
<time>2020-12-02T01:14:15Z</time></trkpt>
<trkpt lat="31.749284" lon="35.134164">
<ele>817</ele>
<time>2020-12-02T01:14:17Z</time></trkpt>
<trkpt lat="31.749175" lon="35.134165">
<ele>819</ele>
<time>2020-12-02T01:14:19Z</time></trkpt>
<trkpt lat="31.748925" lon="35.134246">
<ele>816</ele>
<time>2020-12-02T01:14:25Z</time></trkpt>
<trkpt lat="31.748925" lon="35.134246">
<ele>816</ele>
<time>2020-12-02T01:14:25Z</time></trkpt>
<trkpt lat="31.7488" lon="35.134316">
<ele>815</ele>
<time>2020-12-02T01:14:27Z</time></trkpt>
<trkpt lat="31.748618" lon="35.134457">
<ele>814</ele>
<time>2020-12-02T01:14:32Z</time></trkpt>
<trkpt lat="31.748573" lon="35.134523">
<ele>814</ele>
<time>2020-12-02T01:14:33Z</time></trkpt>
<trkpt lat="31.748525" lon="35.134638">
<ele>814</ele>
<time>2020-12-02T01:14:35Z</time></trkpt>
<trkpt lat="31.748514" lon="35.134807">
<ele>815</ele>
<time>2020-12-02T01:14:38Z</time></trkpt>
<trkpt lat="31.748552" lon="35.134971">
<ele>816</ele>
<time>2020-12-02T01:14:41Z</time></trkpt>
<trkpt lat="31.748615" lon="35.135075">
<ele>815</ele>
<time>2020-12-02T01:14:43Z</time></trkpt>
<trkpt lat="31.748764" lon="35.135196">
<ele>814</ele>
<time>2020-12-02T01:14:47Z</time></trkpt>
<trkpt lat="31.748896" lon="35.135268">
<ele>814</ele>
<time>2020-12-02T01:14:50Z</time></trkpt>
<trkpt lat="31.749212" lon="35.135361">
<ele>815</ele>
<time>2020-12-02T01:14:56Z</time></trkpt>
<trkpt lat="31.749363" lon="35.135379">
<ele>815</ele>
<time>2020-12-02T01:14:59Z</time></trkpt>
<trkpt lat="31.749363" lon="35.135379">
<ele>815</ele>
<time>2020-12-02T01:14:59Z</time></trkpt>
<trkpt lat="31.749951" lon="35.135359">
<ele>815</ele>
<time>2020-12-02T01:15:11Z</time></trkpt>
<trkpt lat="31.750061" lon="35.135368">
<ele>815</ele>
<time>2020-12-02T01:15:13Z</time></trkpt>
<trkpt lat="31.750065" lon="35.135164">
<ele>815</ele>
<time>2020-12-02T01:15:17Z</time></trkpt>
<trkpt lat="31.750101" lon="35.13509">
<ele>815</ele>
<time>2020-12-02T01:15:18Z</time></trkpt>
<trkpt lat="31.750152" lon="35.135029">
<ele>814</ele>
<time>2020-12-02T01:15:20Z</time></trkpt>
<trkpt lat="31.750283" lon="35.134959">
<ele>813</ele>
<time>2020-12-02T01:15:23Z</time></trkpt>
<trkpt lat="31.750638" lon="35.134891">
<ele>809</ele>
<time>2020-12-02T01:15:30Z</time></trkpt>
<trkpt lat="31.750729" lon="35.134825">
<ele>807</ele>
<time>2020-12-02T01:15:32Z</time></trkpt>
<trkpt lat="31.750737" lon="35.134784">
<ele>806</ele>
<time>2020-12-02T01:15:33Z</time></trkpt>
<trkpt lat="31.750719" lon="35.134705">
<ele>804</ele>
<time>2020-12-02T01:15:34Z</time></trkpt>
<trkpt lat="31.750695" lon="35.134673">
<ele>804</ele>
<time>2020-12-02T01:15:35Z</time></trkpt>
<trkpt lat="31.750481" lon="35.134516">
<ele>803</ele>
<time>2020-12-02T01:15:40Z</time></trkpt>
<trkpt lat="31.750345" lon="35.134376">
<ele>803</ele>
<time>2020-12-02T01:15:44Z</time></trkpt>
<trkpt lat="31.750291" lon="35.134266">
<ele>802</ele>
<time>2020-12-02T01:15:46Z</time></trkpt>
<trkpt lat="31.750283" lon="35.134182">
<ele>801</ele>
<time>2020-12-02T01:15:47Z</time></trkpt>
<trkpt lat="31.750317" lon="35.134109">
<ele>798</ele>
<time>2020-12-02T01:15:49Z</time></trkpt>
<trkpt lat="31.750421" lon="35.1341">
<ele>796</ele>
<time>2020-12-02T01:15:51Z</time></trkpt>
<trkpt lat="31.750672" lon="35.134267">
<ele>794</ele>
<time>2020-12-02T01:15:56Z</time></trkpt>
<trkpt lat="31.750805" lon="35.134332">
<ele>793</ele>
<time>2020-12-02T01:15:59Z</time></trkpt>
<trkpt lat="31.750912" lon="35.134317">
<ele>792</ele>
<time>2020-12-02T01:16:02Z</time></trkpt>
<trkpt lat="31.750961" lon="35.134259">
<ele>790</ele>
<time>2020-12-02T01:16:03Z</time></trkpt>
<trkpt lat="31.750965" lon="35.134218">
<ele>789</ele>
<time>2020-12-02T01:16:04Z</time></trkpt>
<trkpt lat="31.750928" lon="35.134147">
<ele>787</ele>
<time>2020-12-02T01:16:05Z</time></trkpt>
<trkpt lat="31.750798" lon="35.134074">
<ele>787</ele>
<time>2020-12-02T01:16:08Z</time></trkpt>
<trkpt lat="31.75071" lon="35.133999">
<ele>787</ele>
<time>2020-12-02T01:16:10Z</time></trkpt>
<trkpt lat="31.750593" lon="35.133793">
<ele>785</ele>
<time>2020-12-02T01:16:14Z</time></trkpt>
<trkpt lat="31.750593" lon="35.133793">
<ele>785</ele>
<time>2020-12-02T01:16:14Z</time></trkpt>
<trkpt lat="31.750539" lon="35.13363">
<ele>782</ele>
<time>2020-12-02T01:16:17Z</time></trkpt>
<trkpt lat="31.750427" lon="35.133136">
<ele>774</ele>
<time>2020-12-02T01:16:26Z</time></trkpt>
<trkpt lat="31.750328" lon="35.132771">
<ele>768</ele>
<time>2020-12-02T01:16:33Z</time></trkpt>
<trkpt lat="31.7503" lon="35.132562">
<ele>764</ele>
<time>2020-12-02T01:16:36Z</time></trkpt>
<trkpt lat="31.75032" lon="35.132222">
<ele>760</ele>
<time>2020-12-02T01:16:42Z</time></trkpt>
<trkpt lat="31.750401" lon="35.13165">
<ele>752</ele>
<time>2020-12-02T01:16:52Z</time></trkpt>
<trkpt lat="31.750544" lon="35.130887">
<ele>747</ele>
<time>2020-12-02T01:17:05Z</time></trkpt>
<trkpt lat="31.75067" lon="35.1304">
<ele>745</ele>
<time>2020-12-02T01:17:14Z</time></trkpt>
<trkpt lat="31.750652" lon="35.130284">
<ele>744</ele>
<time>2020-12-02T01:17:16Z</time></trkpt>
<trkpt lat="31.750491" lon="35.130002">
<ele>742</ele>
<time>2020-12-02T01:17:22Z</time></trkpt>
<trkpt lat="31.750456" lon="35.129882">
<ele>742</ele>
<time>2020-12-02T01:17:24Z</time></trkpt>
<trkpt lat="31.75045" lon="35.129627">
<ele>741</ele>
<time>2020-12-02T01:17:28Z</time></trkpt>
<trkpt lat="31.750499" lon="35.129206">
<ele>741</ele>
<time>2020-12-02T01:17:35Z</time></trkpt>
<trkpt lat="31.750543" lon="35.128999">
<ele>740</ele>
<time>2020-12-02T01:17:39Z</time></trkpt>
<trkpt lat="31.750604" lon="35.128845">
<ele>740</ele>
<time>2020-12-02T01:17:42Z</time></trkpt>
<trkpt lat="31.75098" lon="35.128221">
<ele>738</ele>
<time>2020-12-02T01:17:55Z</time></trkpt>
<trkpt lat="31.751021" lon="35.128061">
<ele>737</ele>
<time>2020-12-02T01:17:58Z</time></trkpt>
<trkpt lat="31.75088" lon="35.127646">
<ele>736</ele>
<time>2020-12-02T01:18:05Z</time></trkpt>
<trkpt lat="31.751256" lon="35.127377">
<ele>734</ele>
<time>2020-12-02T01:18:14Z</time></trkpt>
<trkpt lat="31.751578" lon="35.12703">
<ele>735</ele>
<time>2020-12-02T01:18:23Z</time></trkpt>
<trkpt lat="31.751736" lon="35.126798">
<ele>735</ele>
<time>2020-12-02T01:18:28Z</time></trkpt>
<trkpt lat="31.751913" lon="35.126478">
<ele>733</ele>
<time>2020-12-02T01:18:35Z</time></trkpt>
<trkpt lat="31.752289" lon="35.125966">
<ele>728</ele>
<time>2020-12-02T01:18:46Z</time></trkpt>
<trkpt lat="31.75252" lon="35.125588">
<ele>725</ele>
<time>2020-12-02T01:18:54Z</time></trkpt>
<trkpt lat="31.752607" lon="35.125364">
<ele>724</ele>
<time>2020-12-02T01:18:58Z</time></trkpt>
<trkpt lat="31.752607" lon="35.125364">
<ele>724</ele>
<time>2020-12-02T01:18:58Z</time></trkpt>
<trkpt lat="31.753109" lon="35.124324">
<ele>725</ele>
<time>2020-12-02T01:19:19Z</time></trkpt>
<trkpt lat="31.753387" lon="35.123634">
<ele>726</ele>
<time>2020-12-02T01:19:32Z</time></trkpt>
<trkpt lat="31.753525" lon="35.123337">
<ele>723</ele>
<time>2020-12-02T01:19:37Z</time></trkpt>
<trkpt lat="31.753566" lon="35.123175">
<ele>721</ele>
<time>2020-12-02T01:19:40Z</time></trkpt>
<trkpt lat="31.75358" lon="35.122539">
<ele>719</ele>
<time>2020-12-02T01:19:51Z</time></trkpt>
<trkpt lat="31.753621" lon="35.122332">
<ele>716</ele>
<time>2020-12-02T01:19:55Z</time></trkpt>
<trkpt lat="31.753782" lon="35.121906">
<ele>708</ele>
<time>2020-12-02T01:20:03Z</time></trkpt>
<trkpt lat="31.75379" lon="35.12161">
<ele>706</ele>
<time>2020-12-02T01:20:08Z</time></trkpt>
<trkpt lat="31.753743" lon="35.121362">
<ele>702</ele>
<time>2020-12-02T01:20:12Z</time></trkpt>
<trkpt lat="31.753652" lon="35.12118">
<ele>701</ele>
<time>2020-12-02T01:20:16Z</time></trkpt>
<trkpt lat="31.753498" lon="35.121027">
<ele>702</ele>
<time>2020-12-02T01:20:20Z</time></trkpt>
<trkpt lat="31.753323" lon="35.120853">
<ele>702</ele>
<time>2020-12-02T01:20:24Z</time></trkpt>
<trkpt lat="31.753093" lon="35.120582">
<ele>697</ele>
<time>2020-12-02T01:20:31Z</time></trkpt>
<trkpt lat="31.752891" lon="35.120405">
<ele>693</ele>
<time>2020-12-02T01:20:36Z</time></trkpt>
<trkpt lat="31.752655" lon="35.120318">
<ele>692</ele>
<time>2020-12-02T01:20:41Z</time></trkpt>
<trkpt lat="31.752403" lon="35.120301">
<ele>694</ele>
<time>2020-12-02T01:20:46Z</time></trkpt>
<trkpt lat="31.752334" lon="35.120277">
<ele>693</ele>
<time>2020-12-02T01:20:47Z</time></trkpt>
<trkpt lat="31.752154" lon="35.120262">
<ele>693</ele>
<time>2020-12-02T01:20:51Z</time></trkpt>
<trkpt lat="31.752019" lon="35.120216">
<ele>692</ele>
<time>2020-12-02T01:20:54Z</time></trkpt>
<trkpt lat="31.751268" lon="35.119832">
<ele>689</ele>
<time>2020-12-02T01:21:10Z</time></trkpt>
<trkpt lat="31.751058" lon="35.119671">
<ele>688</ele>
<time>2020-12-02T01:21:15Z</time></trkpt>
<trkpt lat="31.750907" lon="35.11949">
<ele>686</ele>
<time>2020-12-02T01:21:19Z</time></trkpt>
<trkpt lat="31.750776" lon="35.119287">
<ele>684</ele>
<time>2020-12-02T01:21:24Z</time></trkpt>
<trkpt lat="31.750398" lon="35.118615">
<ele>681</ele>
<time>2020-12-02T01:21:37Z</time></trkpt>
<trkpt lat="31.750294" lon="35.118392">
<ele>679</ele>
<time>2020-12-02T01:21:42Z</time></trkpt>
<trkpt lat="31.750142" lon="35.117871">
<ele>675</ele>
<time>2020-12-02T01:21:51Z</time></trkpt>
<trkpt lat="31.750021" lon="35.117165">
<ele>669</ele>
<time>2020-12-02T01:22:03Z</time></trkpt>
<trkpt lat="31.749945" lon="35.116838">
<ele>668</ele>
<time>2020-12-02T01:22:09Z</time></trkpt>
<trkpt lat="31.749576" lon="35.115597">
<ele>661</ele>
<time>2020-12-02T01:22:32Z</time></trkpt>
<trkpt lat="31.749433" lon="35.115254">
<ele>660</ele>
<time>2020-12-02T01:22:38Z</time></trkpt>
<trkpt lat="31.749102" lon="35.114752">
<ele>663</ele>
<time>2020-12-02T01:22:49Z</time></trkpt>
<trkpt lat="31.749023" lon="35.114562">
<ele>662</ele>
<time>2020-12-02T01:22:53Z</time></trkpt>
<trkpt lat="31.748976" lon="35.114314">
<ele>660</ele>
<time>2020-12-02T01:22:57Z</time></trkpt>
<trkpt lat="31.748968" lon="35.114187">
<ele>658</ele>
<time>2020-12-02T01:22:59Z</time></trkpt>
<trkpt lat="31.748973" lon="35.11406">
<ele>658</ele>
<time>2020-12-02T01:23:01Z</time></trkpt>
<trkpt lat="31.749019" lon="35.113899">
<ele>658</ele>
<time>2020-12-02T01:23:04Z</time></trkpt>
<trkpt lat="31.7491" lon="35.113758">
<ele>656</ele>
<time>2020-12-02T01:23:07Z</time></trkpt>
<trkpt lat="31.749761" lon="35.11292">
<ele>641</ele>
<time>2020-12-02T01:23:27Z</time></trkpt>
<trkpt lat="31.749866" lon="35.112747">
<ele>640</ele>
<time>2020-12-02T01:23:30Z</time></trkpt>
<trkpt lat="31.749959" lon="35.112532">
<ele>639</ele>
<time>2020-12-02T01:23:34Z</time></trkpt>
<trkpt lat="31.749959" lon="35.112532">
<ele>639</ele>
<time>2020-12-02T01:23:34Z</time></trkpt>
<trkpt lat="31.750127" lon="35.112142">
<ele>634</ele>
<time>2020-12-02T01:23:42Z</time></trkpt>
<trkpt lat="31.750168" lon="35.11198">
<ele>633</ele>
<time>2020-12-02T01:23:45Z</time></trkpt>
<trkpt lat="31.750162" lon="35.111641">
<ele>632</ele>
<time>2020-12-02T01:23:50Z</time></trkpt>
<trkpt lat="31.749923" lon="35.110445">
<ele>626</ele>
<time>2020-12-02T01:24:11Z</time></trkpt>
<trkpt lat="31.749908" lon="35.109724">
<ele>620</ele>
<time>2020-12-02T01:24:24Z</time></trkpt>
<trkpt lat="31.749873" lon="35.109387">
<ele>619</ele>
<time>2020-12-02T01:24:29Z</time></trkpt>
<trkpt lat="31.749772" lon="35.108893">
<ele>618</ele>
<time>2020-12-02T01:24:38Z</time></trkpt>
<trkpt lat="31.749674" lon="35.108638">
<ele>617</ele>
<time>2020-12-02T01:24:43Z</time></trkpt>
<trkpt lat="31.75007" lon="35.10842">
<ele>616</ele>
<time>2020-12-02T01:24:52Z</time></trkpt>
<trkpt lat="31.75112" lon="35.10795">
<ele>611</ele>
<time>2020-12-02T01:25:14Z</time></trkpt>
<trkpt lat="31.7514" lon="35.10772">
<ele>611</ele>
<time>2020-12-02T01:25:21Z</time></trkpt>
<trkpt lat="31.751755" lon="35.107148">
<ele>614</ele>
<time>2020-12-02T01:25:33Z</time></trkpt>
<trkpt lat="31.751755" lon="35.107148">
<ele>614</ele>
<time>2020-12-02T01:25:33Z</time></trkpt>
<trkpt lat="31.75199" lon="35.10677">
<ele>613</ele>
<time>2020-12-02T01:25:41Z</time></trkpt>
<trkpt lat="31.75236" lon="35.106">
<ele>613</ele>
<time>2020-12-02T01:25:56Z</time></trkpt>
<trkpt lat="31.75274" lon="35.10462">
<ele>609</ele>
<time>2020-12-02T01:26:21Z</time></trkpt>
<trkpt lat="31.75325" lon="35.10366">
<ele>600</ele>
<time>2020-12-02T01:26:40Z</time></trkpt>
<trkpt lat="31.753591" lon="35.103345">
<ele>595</ele>
<time>2020-12-02T01:26:49Z</time></trkpt>
<trkpt lat="31.75372" lon="35.103186">
<ele>593</ele>
<time>2020-12-02T01:26:52Z</time></trkpt>
<trkpt lat="31.753972" lon="35.102779">
<ele>589</ele>
<time>2020-12-02T01:27:01Z</time></trkpt>
<trkpt lat="31.754016" lon="35.102575">
<ele>589</ele>
<time>2020-12-02T01:27:05Z</time></trkpt>
<trkpt lat="31.754089" lon="35.102336">
<ele>587</ele>
<time>2020-12-02T01:27:09Z</time></trkpt>
<trkpt lat="31.754182" lon="35.101753">
<ele>587</ele>
<time>2020-12-02T01:27:19Z</time></trkpt>
<trkpt lat="31.754316" lon="35.101269">
<ele>580</ele>
<time>2020-12-02T01:27:28Z</time></trkpt>
<trkpt lat="31.754313" lon="35.101016">
<ele>578</ele>
<time>2020-12-02T01:27:32Z</time></trkpt>
<trkpt lat="31.754288" lon="35.100892">
<ele>578</ele>
<time>2020-12-02T01:27:34Z</time></trkpt>
<trkpt lat="31.75424" lon="35.100779">
<ele>578</ele>
<time>2020-12-02T01:27:36Z</time></trkpt>
<trkpt lat="31.754161" lon="35.100693">
<ele>579</ele>
<time>2020-12-02T01:27:39Z</time></trkpt>
<trkpt lat="31.753922" lon="35.100503">
<ele>583</ele>
<time>2020-12-02T01:27:44Z</time></trkpt>
<trkpt lat="31.753845" lon="35.100361">
<ele>582</ele>
<time>2020-12-02T01:27:47Z</time></trkpt>
<trkpt lat="31.753812" lon="35.10024">
<ele>581</ele>
<time>2020-12-02T01:27:49Z</time></trkpt>
<trkpt lat="31.753759" lon="35.099821">
<ele>575</ele>
<time>2020-12-02T01:27:57Z</time></trkpt>
<trkpt lat="31.753563" lon="35.09905">
<ele>576</ele>
<time>2020-12-02T01:28:10Z</time></trkpt>
<trkpt lat="31.753559" lon="35.098881">
<ele>578</ele>
<time>2020-12-02T01:28:13Z</time></trkpt>
<trkpt lat="31.753576" lon="35.098799">
<ele>578</ele>
<time>2020-12-02T01:28:15Z</time></trkpt>
<trkpt lat="31.753745" lon="35.098527">
<ele>574</ele>
<time>2020-12-02T01:28:20Z</time></trkpt>
<trkpt lat="31.754033" lon="35.098207">
<ele>566</ele>
<time>2020-12-02T01:28:28Z</time></trkpt>
<trkpt lat="31.754417" lon="35.097701">
<ele>564</ele>
<time>2020-12-02T01:28:40Z</time></trkpt>
<trkpt lat="31.755036" lon="35.09718">
<ele>558</ele>
<time>2020-12-02T01:28:55Z</time></trkpt>
<trkpt lat="31.755036" lon="35.09718">
<ele>558</ele>
<time>2020-12-02T01:28:55Z</time></trkpt>
<trkpt lat="31.755558" lon="35.096742">
<ele>551</ele>
<time>2020-12-02T01:29:08Z</time></trkpt>
<trkpt lat="31.756601" lon="35.095991">
<ele>540</ele>
<time>2020-12-02T01:29:32Z</time></trkpt>
<trkpt lat="31.757283" lon="35.09544">
<ele>532</ele>
<time>2020-12-02T01:29:49Z</time></trkpt>
<trkpt lat="31.757749" lon="35.094972">
<ele>530</ele>
<time>2020-12-02T01:30:01Z</time></trkpt>
<trkpt lat="31.758106" lon="35.094684">
<ele>519</ele>
<time>2020-12-02T01:30:10Z</time></trkpt>
<trkpt lat="31.758224" lon="35.094524">
<ele>517</ele>
<time>2020-12-02T01:30:14Z</time></trkpt>
<trkpt lat="31.758269" lon="35.094409">
<ele>517</ele>
<time>2020-12-02T01:30:16Z</time></trkpt>
<trkpt lat="31.758294" lon="35.0942">
<ele>520</ele>
<time>2020-12-02T01:30:19Z</time></trkpt>
<trkpt lat="31.758272" lon="35.09399">
<ele>516</ele>
<time>2020-12-02T01:30:23Z</time></trkpt>
<trkpt lat="31.758207" lon="35.093888">
<ele>515</ele>
<time>2020-12-02T01:30:25Z</time></trkpt>
<trkpt lat="31.758007" lon="35.093713">
<ele>516</ele>
<time>2020-12-02T01:30:30Z</time></trkpt>
<trkpt lat="31.757809" lon="35.093615">
<ele>520</ele>
<time>2020-12-02T01:30:34Z</time></trkpt>
<trkpt lat="31.757594" lon="35.093459">
<ele>523</ele>
<time>2020-12-02T01:30:39Z</time></trkpt>
<trkpt lat="31.757124" lon="35.093047">
<ele>532</ele>
<time>2020-12-02T01:30:51Z</time></trkpt>
<trkpt lat="31.757124" lon="35.093047">
<ele>532</ele>
<time>2020-12-02T01:30:51Z</time></trkpt>
<trkpt lat="31.756947" lon="35.092857">
<ele>535</ele>
<time>2020-12-02T01:30:56Z</time></trkpt>
<trkpt lat="31.75688" lon="35.092757">
<ele>535</ele>
<time>2020-12-02T01:30:58Z</time></trkpt>
<trkpt lat="31.756758" lon="35.092451">
<ele>530</ele>
<time>2020-12-02T01:31:04Z</time></trkpt>
<trkpt lat="31.756702" lon="35.09225">
<ele>529</ele>
<time>2020-12-02T01:31:08Z</time></trkpt>
<trkpt lat="31.756554" lon="35.091507">
<ele>515</ele>
<time>2020-12-02T01:31:21Z</time></trkpt>
<trkpt lat="31.756511" lon="35.091391">
<ele>512</ele>
<time>2020-12-02T01:31:23Z</time></trkpt>
<trkpt lat="31.756417" lon="35.091264">
<ele>511</ele>
<time>2020-12-02T01:31:26Z</time></trkpt>
<trkpt lat="31.756252" lon="35.091181">
<ele>512</ele>
<time>2020-12-02T01:31:29Z</time></trkpt>
<trkpt lat="31.756146" lon="35.09116">
<ele>514</ele>
<time>2020-12-02T01:31:31Z</time></trkpt>
<trkpt lat="31.756039" lon="35.091176">
<ele>517</ele>
<time>2020-12-02T01:31:33Z</time></trkpt>
<trkpt lat="31.755845" lon="35.091284">
<ele>526</ele>
<time>2020-12-02T01:31:38Z</time></trkpt>
<trkpt lat="31.755647" lon="35.091467">
<ele>536</ele>
<time>2020-12-02T01:31:43Z</time></trkpt>
<trkpt lat="31.755516" lon="35.091538">
<ele>541</ele>
<time>2020-12-02T01:31:46Z</time></trkpt>
<trkpt lat="31.755413" lon="35.091577">
<ele>544</ele>
<time>2020-12-02T01:31:48Z</time></trkpt>
<trkpt lat="31.75527" lon="35.091574">
<ele>546</ele>
<time>2020-12-02T01:31:51Z</time></trkpt>
<trkpt lat="31.755108" lon="35.091481">
<ele>544</ele>
<time>2020-12-02T01:31:54Z</time></trkpt>
<trkpt lat="31.754994" lon="35.091379">
<ele>541</ele>
<time>2020-12-02T01:31:57Z</time></trkpt>
<trkpt lat="31.754887" lon="35.091209">
<ele>537</ele>
<time>2020-12-02T01:32:01Z</time></trkpt>
<trkpt lat="31.754738" lon="35.090873">
<ele>528</ele>
<time>2020-12-02T01:32:07Z</time></trkpt>
<trkpt lat="31.754641" lon="35.090748">
<ele>527</ele>
<time>2020-12-02T01:32:10Z</time></trkpt>
<trkpt lat="31.754524" lon="35.090649">
<ele>527</ele>
<time>2020-12-02T01:32:13Z</time></trkpt>
<trkpt lat="31.754172" lon="35.090435">
<ele>532</ele>
<time>2020-12-02T01:32:21Z</time></trkpt>
<trkpt lat="31.753662" lon="35.090231">
<ele>533</ele>
<time>2020-12-02T01:32:32Z</time></trkpt>
<trkpt lat="31.75345" lon="35.090191">
<ele>535</ele>
<time>2020-12-02T01:32:36Z</time></trkpt>
<trkpt lat="31.753344" lon="35.090213">
<ele>538</ele>
<time>2020-12-02T01:32:38Z</time></trkpt>
<trkpt lat="31.753277" lon="35.090246">
<ele>538</ele>
<time>2020-12-02T01:32:40Z</time></trkpt>
<trkpt lat="31.752981" lon="35.090553">
<ele>537</ele>
<time>2020-12-02T01:32:48Z</time></trkpt>
<trkpt lat="31.752773" lon="35.090837">
<ele>537</ele>
<time>2020-12-02T01:32:54Z</time></trkpt>
<trkpt lat="31.752773" lon="35.090837">
<ele>537</ele>
<time>2020-12-02T01:32:54Z</time></trkpt>
<trkpt lat="31.752649" lon="35.091052">
<ele>536</ele>
<time>2020-12-02T01:32:58Z</time></trkpt>
<trkpt lat="31.752272" lon="35.092153">
<ele>537</ele>
<time>2020-12-02T01:33:19Z</time></trkpt>
<trkpt lat="31.752229" lon="35.092314">
<ele>538</ele>
<time>2020-12-02T01:33:22Z</time></trkpt>
<trkpt lat="31.752055" lon="35.093397">
<ele>546</ele>
<time>2020-12-02T01:33:40Z</time></trkpt>
<trkpt lat="31.751977" lon="35.093723">
<ele>550</ele>
<time>2020-12-02T01:33:46Z</time></trkpt>
<trkpt lat="31.751862" lon="35.093987">
<ele>552</ele>
<time>2020-12-02T01:33:51Z</time></trkpt>
<trkpt lat="31.751535" lon="35.094493">
<ele>554</ele>
<time>2020-12-02T01:34:02Z</time></trkpt>
<trkpt lat="31.751429" lon="35.094608">
<ele>554</ele>
<time>2020-12-02T01:34:05Z</time></trkpt>
<trkpt lat="31.750956" lon="35.094993">
<ele>556</ele>
<time>2020-12-02T01:34:16Z</time></trkpt>
<trkpt lat="31.750549" lon="35.095263">
<ele>552</ele>
<time>2020-12-02T01:34:26Z</time></trkpt>
<trkpt lat="31.750316" lon="35.095461">
<ele>551</ele>
<time>2020-12-02T01:34:31Z</time></trkpt>
<trkpt lat="31.750214" lon="35.09558">
<ele>551</ele>
<time>2020-12-02T01:34:34Z</time></trkpt>
<trkpt lat="31.750079" lon="35.095779">
<ele>553</ele>
<time>2020-12-02T01:34:39Z</time></trkpt>
<trkpt lat="31.749921" lon="35.096156">
<ele>560</ele>
<time>2020-12-02T01:34:46Z</time></trkpt>
<trkpt lat="31.749877" lon="35.096317">
<ele>564</ele>
<time>2020-12-02T01:34:49Z</time></trkpt>
<trkpt lat="31.749806" lon="35.09641">
<ele>566</ele>
<time>2020-12-02T01:34:51Z</time></trkpt>
<trkpt lat="31.749707" lon="35.096458">
<ele>566</ele>
<time>2020-12-02T01:34:53Z</time></trkpt>
<trkpt lat="31.749347" lon="35.096459">
<ele>562</ele>
<time>2020-12-02T01:35:00Z</time></trkpt>
<trkpt lat="31.749242" lon="35.096488">
<ele>561</ele>
<time>2020-12-02T01:35:02Z</time></trkpt>
<trkpt lat="31.74892" lon="35.096678">
<ele>564</ele>
<time>2020-12-02T01:35:10Z</time></trkpt>
<trkpt lat="31.748515" lon="35.096876">
<ele>568</ele>
<time>2020-12-02T01:35:18Z</time></trkpt>
<trkpt lat="31.748515" lon="35.096876">
<ele>568</ele>
<time>2020-12-02T01:35:18Z</time></trkpt>
<trkpt lat="31.74826" lon="35.097003">
<ele>571</ele>
<time>2020-12-02T01:35:24Z</time></trkpt>
<trkpt lat="31.747954" lon="35.097125">
<ele>573</ele>
<time>2020-12-02T01:35:30Z</time></trkpt>
<trkpt lat="31.747407" lon="35.097408">
<ele>573</ele>
<time>2020-12-02T01:35:42Z</time></trkpt>
<trkpt lat="31.747245" lon="35.097514">
<ele>573</ele>
<time>2020-12-02T01:35:46Z</time></trkpt>
<trkpt lat="31.747027" lon="35.097618">
<ele>574</ele>
<time>2020-12-02T01:35:51Z</time></trkpt>
<trkpt lat="31.746793" lon="35.097695">
<ele>573</ele>
<time>2020-12-02T01:35:56Z</time></trkpt>
<trkpt lat="31.746465" lon="35.097748">
<ele>569</ele>
<time>2020-12-02T01:36:02Z</time></trkpt>
<trkpt lat="31.746294" lon="35.097824">
<ele>568</ele>
<time>2020-12-02T01:36:06Z</time></trkpt>
<trkpt lat="31.746155" lon="35.097965">
<ele>568</ele>
<time>2020-12-02T01:36:10Z</time></trkpt>
<trkpt lat="31.746093" lon="35.098123">
<ele>570</ele>
<time>2020-12-02T01:36:13Z</time></trkpt>
<trkpt lat="31.746057" lon="35.098336">
<ele>573</ele>
<time>2020-12-02T01:36:16Z</time></trkpt>
<trkpt lat="31.74603" lon="35.098638">
<ele>575</ele>
<time>2020-12-02T01:36:22Z</time></trkpt>
<trkpt lat="31.745963" lon="35.098804">
<ele>575</ele>
<time>2020-12-02T01:36:25Z</time></trkpt>
<trkpt lat="31.746028" lon="35.098967">
<ele>577</ele>
<time>2020-12-02T01:36:28Z</time></trkpt>
<trkpt lat="31.746068" lon="35.099306">
<ele>581</ele>
<time>2020-12-02T01:36:34Z</time></trkpt>
<trkpt lat="31.746051" lon="35.099476">
<ele>583</ele>
<time>2020-12-02T01:36:36Z</time></trkpt>
<trkpt lat="31.74597" lon="35.099666">
<ele>583</ele>
<time>2020-12-02T01:36:40Z</time></trkpt>
<trkpt lat="31.745644" lon="35.10007">
<ele>578</ele>
<time>2020-12-02T01:36:50Z</time></trkpt>
<trkpt lat="31.745559" lon="35.100209">
<ele>577</ele>
<time>2020-12-02T01:36:52Z</time></trkpt>
<trkpt lat="31.745463" lon="35.100532">
<ele>575</ele>
<time>2020-12-02T01:36:58Z</time></trkpt>
<trkpt lat="31.745391" lon="35.100946">
<ele>573</ele>
<time>2020-12-02T01:37:06Z</time></trkpt>
<trkpt lat="31.745391" lon="35.100946">
<ele>573</ele>
<time>2020-12-02T01:37:06Z</time></trkpt>
<trkpt lat="31.745179" lon="35.10234">
<ele>556</ele>
<time>2020-12-02T01:37:30Z</time></trkpt>
<trkpt lat="31.745277" lon="35.102697">
<ele>556</ele>
<time>2020-12-02T01:37:36Z</time></trkpt>
<trkpt lat="31.745449" lon="35.10312">
<ele>557</ele>
<time>2020-12-02T01:37:44Z</time></trkpt>
<trkpt lat="31.745805" lon="35.103813">
<ele>558</ele>
<time>2020-12-02T01:37:58Z</time></trkpt>
<trkpt lat="31.745883" lon="35.104005">
<ele>557</ele>
<time>2020-12-02T01:38:01Z</time></trkpt>
<trkpt lat="31.745923" lon="35.104169">
<ele>556</ele>
<time>2020-12-02T01:38:04Z</time></trkpt>
<trkpt lat="31.74597" lon="35.104592">
<ele>554</ele>
<time>2020-12-02T01:38:12Z</time></trkpt>
<trkpt lat="31.746079" lon="35.105133">
<ele>553</ele>
<time>2020-12-02T01:38:21Z</time></trkpt>
<trkpt lat="31.746079" lon="35.105133">
<ele>553</ele>
<time>2020-12-02T01:38:21Z</time></trkpt>
<trkpt lat="31.746167" lon="35.105411">
<ele>551</ele>
<time>2020-12-02T01:38:26Z</time></trkpt>
<trkpt lat="31.746251" lon="35.1056">
<ele>551</ele>
<time>2020-12-02T01:38:30Z</time></trkpt>
<trkpt lat="31.746522" lon="35.106">
<ele>553</ele>
<time>2020-12-02T01:38:39Z</time></trkpt>
<trkpt lat="31.746729" lon="35.106238">
<ele>554</ele>
<time>2020-12-02T01:38:44Z</time></trkpt>
<trkpt lat="31.746794" lon="35.10634">
<ele>554</ele>
<time>2020-12-02T01:38:46Z</time></trkpt>
<trkpt lat="31.74684" lon="35.106456">
<ele>553</ele>
<time>2020-12-02T01:38:49Z</time></trkpt>
<trkpt lat="31.746861" lon="35.106624">
<ele>551</ele>
<time>2020-12-02T01:38:52Z</time></trkpt>
<trkpt lat="31.746842" lon="35.106793">
<ele>552</ele>
<time>2020-12-02T01:38:54Z</time></trkpt>
<trkpt lat="31.746783" lon="35.106994">
<ele>553</ele>
<time>2020-12-02T01:38:58Z</time></trkpt>
<trkpt lat="31.74668" lon="35.107169">
<ele>553</ele>
<time>2020-12-02T01:39:02Z</time></trkpt>
<trkpt lat="31.746537" lon="35.107299">
<ele>553</ele>
<time>2020-12-02T01:39:05Z</time></trkpt>
<trkpt lat="31.746299" lon="35.107402">
<ele>552</ele>
<time>2020-12-02T01:39:10Z</time></trkpt>
<trkpt lat="31.745842" lon="35.107495">
<ele>550</ele>
<time>2020-12-02T01:39:20Z</time></trkpt>
<trkpt lat="31.745842" lon="35.107495">
<ele>550</ele>
<time>2020-12-02T01:39:20Z</time></trkpt>
<trkpt lat="31.745101" lon="35.107708">
<ele>551</ele>
<time>2020-12-02T01:39:35Z</time></trkpt>
<trkpt lat="31.74449" lon="35.10778">
<ele>548</ele>
<time>2020-12-02T01:39:47Z</time></trkpt>
<trkpt lat="31.744321" lon="35.107856">
<ele>547</ele>
<time>2020-12-02T01:39:51Z</time></trkpt>
<trkpt lat="31.744209" lon="35.107963">
<ele>547</ele>
<time>2020-12-02T01:39:54Z</time></trkpt>
<trkpt lat="31.744117" lon="35.108095">
<ele>547</ele>
<time>2020-12-02T01:39:57Z</time></trkpt>
<trkpt lat="31.744095" lon="35.108151">
<ele>547</ele>
<time>2020-12-02T01:39:58Z</time></trkpt>
<trkpt lat="31.744095" lon="35.108151">
<ele>547</ele>
<time>2020-12-02T01:39:58Z</time></trkpt>
<trkpt lat="31.743952" lon="35.108518">
<ele>548</ele>
<time>2020-12-02T01:40:05Z</time></trkpt>
<trkpt lat="31.743846" lon="35.108748">
<ele>548</ele>
<time>2020-12-02T01:40:09Z</time></trkpt>
<trkpt lat="31.743782" lon="35.108999">
<ele>550</ele>
<time>2020-12-02T01:40:14Z</time></trkpt>
<trkpt lat="31.743734" lon="35.109111">
<ele>551</ele>
<time>2020-12-02T01:40:16Z</time></trkpt>
<trkpt lat="31.743645" lon="35.109207">
<ele>551</ele>
<time>2020-12-02T01:40:18Z</time></trkpt>
<trkpt lat="31.743578" lon="35.109226">
<ele>550</ele>
<time>2020-12-02T01:40:20Z</time></trkpt>
<trkpt lat="31.743455" lon="35.109182">
<ele>548</ele>
<time>2020-12-02T01:40:22Z</time></trkpt>
<trkpt lat="31.743084" lon="35.108942">
<ele>540</ele>
<time>2020-12-02T01:40:31Z</time></trkpt>
<trkpt lat="31.742802" lon="35.108818">
<ele>535</ele>
<time>2020-12-02T01:40:37Z</time></trkpt>
<trkpt lat="31.742615" lon="35.108798">
<ele>533</ele>
<time>2020-12-02T01:40:40Z</time></trkpt>
<trkpt lat="31.742524" lon="35.108834">
<ele>532</ele>
<time>2020-12-02T01:40:42Z</time></trkpt>
<trkpt lat="31.74247" lon="35.108898">
<ele>533</ele>
<time>2020-12-02T01:40:44Z</time></trkpt>
<trkpt lat="31.742438" lon="35.108993">
<ele>533</ele>
<time>2020-12-02T01:40:46Z</time></trkpt>
<trkpt lat="31.742309" lon="35.109769">
<ele>540</ele>
<time>2020-12-02T01:40:59Z</time></trkpt>
<trkpt lat="31.74213" lon="35.110355">
<ele>543</ele>
<time>2020-12-02T01:41:10Z</time></trkpt>
<trkpt lat="31.741944" lon="35.110771">
<ele>543</ele>
<time>2020-12-02T01:41:18Z</time></trkpt>
<trkpt lat="31.741872" lon="35.110887">
<ele>542</ele>
<time>2020-12-02T01:41:20Z</time></trkpt>
<trkpt lat="31.741872" lon="35.110887">
<ele>542</ele>
<time>2020-12-02T01:41:20Z</time></trkpt>
<trkpt lat="31.741767" lon="35.111055">
<ele>543</ele>
<time>2020-12-02T01:41:24Z</time></trkpt>
<trkpt lat="31.741703" lon="35.111126">
<ele>542</ele>
<time>2020-12-02T01:41:25Z</time></trkpt>
<trkpt lat="31.741285" lon="35.111521">
<ele>540</ele>
<time>2020-12-02T01:41:36Z</time></trkpt>
<trkpt lat="31.740964" lon="35.111797">
<ele>538</ele>
<time>2020-12-02T01:41:44Z</time></trkpt>
<trkpt lat="31.740824" lon="35.111889">
<ele>537</ele>
<time>2020-12-02T01:41:47Z</time></trkpt>
<trkpt lat="31.740576" lon="35.112019">
<ele>538</ele>
<time>2020-12-02T01:41:53Z</time></trkpt>
<trkpt lat="31.740278" lon="35.11215">
<ele>537</ele>
<time>2020-12-02T01:41:59Z</time></trkpt>
<trkpt lat="31.739563" lon="35.112421">
<ele>531</ele>
<time>2020-12-02T01:42:14Z</time></trkpt>
<trkpt lat="31.739563" lon="35.112421">
<ele>531</ele>
<time>2020-12-02T01:42:14Z</time></trkpt>
<trkpt lat="31.739137" lon="35.112632">
<ele>528</ele>
<time>2020-12-02T01:42:23Z</time></trkpt>
<trkpt lat="31.73878" lon="35.11291">
<ele>529</ele>
<time>2020-12-02T01:42:32Z</time></trkpt>
<trkpt lat="31.738383" lon="35.113328">
<ele>526</ele>
<time>2020-12-02T01:42:43Z</time></trkpt>
<trkpt lat="31.738146" lon="35.113686">
<ele>530</ele>
<time>2020-12-02T01:42:50Z</time></trkpt>
<trkpt lat="31.737991" lon="35.11397">
<ele>531</ele>
<time>2020-12-02T01:42:56Z</time></trkpt>
<trkpt lat="31.737841" lon="35.114296">
<ele>530</ele>
<time>2020-12-02T01:43:03Z</time></trkpt>
<trkpt lat="31.737668" lon="35.114815">
<ele>527</ele>
<time>2020-12-02T01:43:12Z</time></trkpt>
<trkpt lat="31.737619" lon="35.11512">
<ele>527</ele>
<time>2020-12-02T01:43:17Z</time></trkpt>
<trkpt lat="31.73759" lon="35.115474">
<ele>528</ele>
<time>2020-12-02T01:43:23Z</time></trkpt>
<trkpt lat="31.737326" lon="35.116195">
<ele>532</ele>
<time>2020-12-02T01:43:37Z</time></trkpt>
<trkpt lat="31.737239" lon="35.116376">
<ele>533</ele>
<time>2020-12-02T01:43:40Z</time></trkpt>
<trkpt lat="31.737086" lon="35.116611">
<ele>531</ele>
<time>2020-12-02T01:43:45Z</time></trkpt>
<trkpt lat="31.737086" lon="35.116611">
<ele>531</ele>
<time>2020-12-02T01:43:45Z</time></trkpt>
<trkpt lat="31.73661" lon="35.117341">
<ele>523</ele>
<time>2020-12-02T01:44:01Z</time></trkpt>
<trkpt lat="31.736521" lon="35.117534">
<ele>524</ele>
<time>2020-12-02T01:44:05Z</time></trkpt>
<trkpt lat="31.736432" lon="35.117775">
<ele>523</ele>
<time>2020-12-02T01:44:09Z</time></trkpt>
<trkpt lat="31.736327" lon="35.118407">
<ele>521</ele>
<time>2020-12-02T01:44:20Z</time></trkpt>
<trkpt lat="31.736327" lon="35.118407">
<ele>521</ele>
<time>2020-12-02T01:44:20Z</time></trkpt>
<trkpt lat="31.7363" lon="35.11857">
<ele>521</ele>
<time>2020-12-02T01:44:23Z</time></trkpt>
<trkpt lat="31.736228" lon="35.11857">
<ele>521</ele>
<time>2020-12-02T01:44:24Z</time></trkpt>
<trkpt lat="31.736003" lon="35.11867">
<ele>522</ele>
<time>2020-12-02T01:44:29Z</time></trkpt>
<trkpt lat="31.735919" lon="35.118405">
<ele>519</ele>
<time>2020-12-02T01:44:34Z</time></trkpt>
<trkpt lat="31.735955" lon="35.117812">
<ele>523</ele>
<time>2020-12-02T01:44:44Z</time></trkpt>
<trkpt lat="31.735988" lon="35.117719">
<ele>524</ele>
<time>2020-12-02T01:44:46Z</time></trkpt>
<trkpt lat="31.735988" lon="35.117719">
<ele>524</ele>
<time>2020-12-02T01:44:46Z</time></trkpt>
<trkpt lat="31.736137" lon="35.117308">
<ele>526</ele>
<time>2020-12-02T01:44:54Z</time></trkpt>
<trkpt lat="31.736809" lon="35.116192">
<ele>518</ele>
<time>2020-12-02T01:45:17Z</time></trkpt>
<trkpt lat="31.737008" lon="35.115438">
<ele>521</ele>
<time>2020-12-02T01:45:30Z</time></trkpt>
<trkpt lat="31.737008" lon="35.115438">
<ele>521</ele>
<time>2020-12-02T01:45:30Z</time></trkpt>
<trkpt lat="31.73714" lon="35.114938">
<ele>522</ele>
<time>2020-12-02T01:45:39Z</time></trkpt>
<trkpt lat="31.737153" lon="35.114643">
<ele>523</ele>
<time>2020-12-02T01:45:44Z</time></trkpt>
<trkpt lat="31.737216" lon="35.114485">
<ele>522</ele>
<time>2020-12-02T01:45:47Z</time></trkpt>
<trkpt lat="31.73728" lon="35.114473">
<ele>520</ele>
<time>2020-12-02T01:45:49Z</time></trkpt>
<trkpt lat="31.737361" lon="35.114482">
<ele>519</ele>
<time>2020-12-02T01:45:50Z</time></trkpt>
<trkpt lat="31.737415" lon="35.114386">
<ele>517</ele>
<time>2020-12-02T01:45:52Z</time></trkpt>
<trkpt lat="31.737487" lon="35.114058">
<ele>514</ele>
<time>2020-12-02T01:45:58Z</time></trkpt>
<trkpt lat="31.737672" lon="35.113734">
<ele>518</ele>
<time>2020-12-02T01:46:05Z</time></trkpt>
<trkpt lat="31.738014" lon="35.113008">
<ele>519</ele>
<time>2020-12-02T01:46:19Z</time></trkpt>
<trkpt lat="31.738512" lon="35.11226">
<ele>510</ele>
<time>2020-12-02T01:46:35Z</time></trkpt>
<trkpt lat="31.738768" lon="35.112014">
<ele>510</ele>
<time>2020-12-02T01:46:42Z</time></trkpt>
<trkpt lat="31.739312" lon="35.1118">
<ele>507</ele>
<time>2020-12-02T01:46:53Z</time></trkpt>
<trkpt lat="31.739312" lon="35.1118">
<ele>507</ele>
<time>2020-12-02T01:46:53Z</time></trkpt>
<trkpt lat="31.740237" lon="35.111437">
<ele>513</ele>
<time>2020-12-02T01:47:13Z</time></trkpt>
<trkpt lat="31.740616" lon="35.111167">
<ele>512</ele>
<time>2020-12-02T01:47:21Z</time></trkpt>
<trkpt lat="31.740876" lon="35.110772">
<ele>503</ele>
<time>2020-12-02T01:47:30Z</time></trkpt>
<trkpt lat="31.741183" lon="35.110201">
<ele>507</ele>
<time>2020-12-02T01:47:41Z</time></trkpt>
<trkpt lat="31.741183" lon="35.110201">
<ele>507</ele>
<time>2020-12-02T01:47:41Z</time></trkpt>
<trkpt lat="31.741392" lon="35.109181">
<ele>504</ele>
<time>2020-12-02T01:47:59Z</time></trkpt>
<trkpt lat="31.741513" lon="35.1088">
<ele>504</ele>
<time>2020-12-02T01:48:06Z</time></trkpt>
<trkpt lat="31.741479" lon="35.108485">
<ele>503</ele>
<time>2020-12-02T01:48:12Z</time></trkpt>
<trkpt lat="31.74107" lon="35.107888">
<ele>495</ele>
<time>2020-12-02T01:48:25Z</time></trkpt>
<trkpt lat="31.740994" lon="35.107626">
<ele>493</ele>
<time>2020-12-02T01:48:29Z</time></trkpt>
<trkpt lat="31.741087" lon="35.10729">
<ele>493</ele>
<time>2020-12-02T01:48:36Z</time></trkpt>
<trkpt lat="31.741376" lon="35.10683">
<ele>493</ele>
<time>2020-12-02T01:48:45Z</time></trkpt>
<trkpt lat="31.74148" lon="35.106732">
<ele>491</ele>
<time>2020-12-02T01:48:48Z</time></trkpt>
<trkpt lat="31.742075" lon="35.106498">
<ele>496</ele>
<time>2020-12-02T01:49:01Z</time></trkpt>
<trkpt lat="31.742075" lon="35.106499">
<ele>496</ele>
<time>2020-12-02T01:49:01Z</time></trkpt>
<trkpt lat="31.742258" lon="35.106427">
<ele>498</ele>
<time>2020-12-02T01:49:04Z</time></trkpt>
<trkpt lat="31.742378" lon="35.106357">
<ele>498</ele>
<time>2020-12-02T01:49:07Z</time></trkpt>
<trkpt lat="31.742484" lon="35.106218">
<ele>497</ele>
<time>2020-12-02T01:49:10Z</time></trkpt>
<trkpt lat="31.742544" lon="35.106067">
<ele>496</ele>
<time>2020-12-02T01:49:13Z</time></trkpt>
<trkpt lat="31.742593" lon="35.105876">
<ele>494</ele>
<time>2020-12-02T01:49:16Z</time></trkpt>
<trkpt lat="31.742952" lon="35.104778">
<ele>490</ele>
<time>2020-12-02T01:49:37Z</time></trkpt>
<trkpt lat="31.742964" lon="35.104696">
<ele>490</ele>
<time>2020-12-02T01:49:38Z</time></trkpt>
<trkpt lat="31.742921" lon="35.104537">
<ele>489</ele>
<time>2020-12-02T01:49:41Z</time></trkpt>
<trkpt lat="31.742824" lon="35.104331">
<ele>488</ele>
<time>2020-12-02T01:49:45Z</time></trkpt>
<trkpt lat="31.742792" lon="35.10419">
<ele>488</ele>
<time>2020-12-02T01:49:47Z</time></trkpt>
<trkpt lat="31.742753" lon="35.103879">
<ele>488</ele>
<time>2020-12-02T01:49:53Z</time></trkpt>
<trkpt lat="31.742768" lon="35.103703">
<ele>489</ele>
<time>2020-12-02T01:49:56Z</time></trkpt>
<trkpt lat="31.742805" lon="35.103551">
<ele>489</ele>
<time>2020-12-02T01:49:58Z</time></trkpt>
<trkpt lat="31.743129" lon="35.102535">
<ele>490</ele>
<time>2020-12-02T01:50:17Z</time></trkpt>
<trkpt lat="31.743155" lon="35.101833">
<ele>490</ele>
<time>2020-12-02T01:50:29Z</time></trkpt>
<trkpt lat="31.743155" lon="35.101833">
<ele>490</ele>
<time>2020-12-02T01:50:29Z</time></trkpt>
<trkpt lat="31.743156" lon="35.101204">
<ele>490</ele>
<time>2020-12-02T01:50:40Z</time></trkpt>
<trkpt lat="31.743174" lon="35.10083">
<ele>490</ele>
<time>2020-12-02T01:50:46Z</time></trkpt>
<trkpt lat="31.743166" lon="35.100579">
<ele>492</ele>
<time>2020-12-02T01:50:50Z</time></trkpt>
<trkpt lat="31.74311" lon="35.100229">
<ele>494</ele>
<time>2020-12-02T01:50:56Z</time></trkpt>
<trkpt lat="31.743072" lon="35.100078">
<ele>494</ele>
<time>2020-12-02T01:50:59Z</time></trkpt>
<trkpt lat="31.743022" lon="35.099955">
<ele>494</ele>
<time>2020-12-02T01:51:01Z</time></trkpt>
<trkpt lat="31.742414" lon="35.098872">
<ele>482</ele>
<time>2020-12-02T01:51:23Z</time></trkpt>
<trkpt lat="31.742337" lon="35.098775">
<ele>482</ele>
<time>2020-12-02T01:51:26Z</time></trkpt>
<trkpt lat="31.742337" lon="35.098775">
<ele>482</ele>
<time>2020-12-02T01:51:26Z</time></trkpt>
<trkpt lat="31.742037" lon="35.098397">
<ele>481</ele>
<time>2020-12-02T01:51:34Z</time></trkpt>
<trkpt lat="31.741837" lon="35.098086">
<ele>479</ele>
<time>2020-12-02T01:51:41Z</time></trkpt>
<trkpt lat="31.741659" lon="35.097722">
<ele>477</ele>
<time>2020-12-02T01:51:48Z</time></trkpt>
<trkpt lat="31.741438" lon="35.096896">
<ele>477</ele>
<time>2020-12-02T01:52:03Z</time></trkpt>
<trkpt lat="31.741418" lon="35.096614">
<ele>477</ele>
<time>2020-12-02T01:52:08Z</time></trkpt>
<trkpt lat="31.741351" lon="35.096202">
<ele>475</ele>
<time>2020-12-02T01:52:15Z</time></trkpt>
<trkpt lat="31.741366" lon="35.096026">
<ele>474</ele>
<time>2020-12-02T01:52:18Z</time></trkpt>
<trkpt lat="31.741473" lon="35.095674">
<ele>473</ele>
<time>2020-12-02T01:52:24Z</time></trkpt>
<trkpt lat="31.74158" lon="35.095441">
<ele>473</ele>
<time>2020-12-02T01:52:29Z</time></trkpt>
<trkpt lat="31.741656" lon="35.095312">
<ele>472</ele>
<time>2020-12-02T01:52:32Z</time></trkpt>
<trkpt lat="31.741778" lon="35.095157">
<ele>472</ele>
<time>2020-12-02T01:52:35Z</time></trkpt>
<trkpt lat="31.741895" lon="35.095043">
<ele>472</ele>
<time>2020-12-02T01:52:38Z</time></trkpt>
<trkpt lat="31.741995" lon="35.094975">
<ele>472</ele>
<time>2020-12-02T01:52:41Z</time></trkpt>
<trkpt lat="31.742176" lon="35.094925">
<ele>472</ele>
<time>2020-12-02T01:52:44Z</time></trkpt>
<trkpt lat="31.742273" lon="35.094921">
<ele>472</ele>
<time>2020-12-02T01:52:46Z</time></trkpt>
<trkpt lat="31.742559" lon="35.094979">
<ele>471</ele>
<time>2020-12-02T01:52:52Z</time></trkpt>
<trkpt lat="31.742873" lon="35.095096">
<ele>474</ele>
<time>2020-12-02T01:52:59Z</time></trkpt>
<trkpt lat="31.742873" lon="35.095096">
<ele>474</ele>
<time>2020-12-02T01:52:59Z</time></trkpt>
<trkpt lat="31.74311" lon="35.09516">
<ele>476</ele>
<time>2020-12-02T01:53:03Z</time></trkpt>
<trkpt lat="31.743288" lon="35.095153">
<ele>477</ele>
<time>2020-12-02T01:53:07Z</time></trkpt>
<trkpt lat="31.743375" lon="35.095132">
<ele>477</ele>
<time>2020-12-02T01:53:09Z</time></trkpt>
<trkpt lat="31.743601" lon="35.095036">
<ele>476</ele>
<time>2020-12-02T01:53:14Z</time></trkpt>
<trkpt lat="31.743868" lon="35.094825">
<ele>477</ele>
<time>2020-12-02T01:53:20Z</time></trkpt>
<trkpt lat="31.744028" lon="35.094524">
<ele>475</ele>
<time>2020-12-02T01:53:26Z</time></trkpt>
<trkpt lat="31.744106" lon="35.09441">
<ele>474</ele>
<time>2020-12-02T01:53:29Z</time></trkpt>
<trkpt lat="31.74423" lon="35.09432">
<ele>474</ele>
<time>2020-12-02T01:53:32Z</time></trkpt>
<trkpt lat="31.744759" lon="35.0941">
<ele>474</ele>
<time>2020-12-02T01:53:43Z</time></trkpt>
<trkpt lat="31.744759" lon="35.0941">
<ele>474</ele>
<time>2020-12-02T01:53:43Z</time></trkpt>
<trkpt lat="31.745117" lon="35.093972">
<ele>475</ele>
<time>2020-12-02T01:53:50Z</time></trkpt>
<trkpt lat="31.745222" lon="35.093953">
<ele>475</ele>
<time>2020-12-02T01:53:52Z</time></trkpt>
<trkpt lat="31.745563" lon="35.093953">
<ele>474</ele>
<time>2020-12-02T01:53:59Z</time></trkpt>
<trkpt lat="31.745702" lon="35.093933">
<ele>473</ele>
<time>2020-12-02T01:54:02Z</time></trkpt>
<trkpt lat="31.746115" lon="35.093733">
<ele>469</ele>
<time>2020-12-02T01:54:11Z</time></trkpt>
<trkpt lat="31.746278" lon="35.093681">
<ele>467</ele>
<time>2020-12-02T01:54:14Z</time></trkpt>
<trkpt lat="31.746375" lon="35.093675">
<ele>467</ele>
<time>2020-12-02T01:54:16Z</time></trkpt>
<trkpt lat="31.746461" lon="35.093698">
<ele>466</ele>
<time>2020-12-02T01:54:18Z</time></trkpt>
<trkpt lat="31.746513" lon="35.093734">
<ele>466</ele>
<time>2020-12-02T01:54:19Z</time></trkpt>
<trkpt lat="31.746564" lon="35.093824">
<ele>466</ele>
<time>2020-12-02T01:54:21Z</time></trkpt>
<trkpt lat="31.746603" lon="35.094109">
<ele>466</ele>
<time>2020-12-02T01:54:26Z</time></trkpt>
<trkpt lat="31.746646" lon="35.094211">
<ele>467</ele>
<time>2020-12-02T01:54:28Z</time></trkpt>
<trkpt lat="31.746784" lon="35.0944">
<ele>472</ele>
<time>2020-12-02T01:54:32Z</time></trkpt>
<trkpt lat="31.746869" lon="35.094474">
<ele>475</ele>
<time>2020-12-02T01:54:34Z</time></trkpt>
<trkpt lat="31.74701" lon="35.094558">
<ele>478</ele>
<time>2020-12-02T01:54:38Z</time></trkpt>
<trkpt lat="31.74709" lon="35.094586">
<ele>479</ele>
<time>2020-12-02T01:54:39Z</time></trkpt>
<trkpt lat="31.74709" lon="35.094586">
<ele>479</ele>
<time>2020-12-02T01:54:39Z</time></trkpt>
<trkpt lat="31.747243" lon="35.094617">
<ele>480</ele>
<time>2020-12-02T01:54:42Z</time></trkpt>
<trkpt lat="31.747376" lon="35.09461">
<ele>480</ele>
<time>2020-12-02T01:54:45Z</time></trkpt>
<trkpt lat="31.747524" lon="35.094576">
<ele>479</ele>
<time>2020-12-02T01:54:48Z</time></trkpt>
<trkpt lat="31.747749" lon="35.094463">
<ele>478</ele>
<time>2020-12-02T01:54:53Z</time></trkpt>
<trkpt lat="31.748203" lon="35.094103">
<ele>472</ele>
<time>2020-12-02T01:55:04Z</time></trkpt>
<trkpt lat="31.748788" lon="35.093788">
<ele>472</ele>
<time>2020-12-02T01:55:17Z</time></trkpt>
<trkpt lat="31.748788" lon="35.093788">
<ele>472</ele>
<time>2020-12-02T01:55:17Z</time></trkpt>
<trkpt lat="31.749062" lon="35.093648">
<ele>471</ele>
<time>2020-12-02T01:55:23Z</time></trkpt>
<trkpt lat="31.749292" lon="35.093623">
<ele>470</ele>
<time>2020-12-02T01:55:27Z</time></trkpt>
<trkpt lat="31.749771" lon="35.093441">
<ele>465</ele>
<time>2020-12-02T01:55:37Z</time></trkpt>
<trkpt lat="31.75001" lon="35.093377">
<ele>463</ele>
<time>2020-12-02T01:55:42Z</time></trkpt>
<trkpt lat="31.750464" lon="35.093302">
<ele>468</ele>
<time>2020-12-02T01:55:52Z</time></trkpt>
<trkpt lat="31.750599" lon="35.093255">
<ele>469</ele>
<time>2020-12-02T01:55:54Z</time></trkpt>
<trkpt lat="31.750783" lon="35.093133">
<ele>470</ele>
<time>2020-12-02T01:55:59Z</time></trkpt>
<trkpt lat="31.750872" lon="35.093005">
<ele>471</ele>
<time>2020-12-02T01:56:01Z</time></trkpt>
<trkpt lat="31.750943" lon="35.092775">
<ele>471</ele>
<time>2020-12-02T01:56:06Z</time></trkpt>
<trkpt lat="31.750943" lon="35.092775">
<ele>471</ele>
<time>2020-12-02T01:56:06Z</time></trkpt>
<trkpt lat="31.750969" lon="35.092663">
<ele>471</ele>
<time>2020-12-02T01:56:08Z</time></trkpt>
<trkpt lat="31.750986" lon="35.092487">
<ele>469</ele>
<time>2020-12-02T01:56:11Z</time></trkpt>
<trkpt lat="31.750984" lon="35.092223">
<ele>469</ele>
<time>2020-12-02T01:56:15Z</time></trkpt>
<trkpt lat="31.750934" lon="35.092059">
<ele>465</ele>
<time>2020-12-02T01:56:18Z</time></trkpt>
<trkpt lat="31.750713" lon="35.09172">
<ele>460</ele>
<time>2020-12-02T01:56:25Z</time></trkpt>
<trkpt lat="31.750615" lon="35.091487">
<ele>460</ele>
<time>2020-12-02T01:56:30Z</time></trkpt>
<trkpt lat="31.750568" lon="35.091277">
<ele>459</ele>
<time>2020-12-02T01:56:33Z</time></trkpt>
<trkpt lat="31.750488" lon="35.090735">
<ele>457</ele>
<time>2020-12-02T01:56:43Z</time></trkpt>
<trkpt lat="31.750474" lon="35.090411">
<ele>456</ele>
<time>2020-12-02T01:56:48Z</time></trkpt>
<trkpt lat="31.750484" lon="35.090341">
<ele>456</ele>
<time>2020-12-02T01:56:50Z</time></trkpt>
<trkpt lat="31.750484" lon="35.090341">
<ele>456</ele>
<time>2020-12-02T01:56:50Z</time></trkpt>
<trkpt lat="31.750513" lon="35.090146">
<ele>455</ele>
<time>2020-12-02T01:56:53Z</time></trkpt>
<trkpt lat="31.750566" lon="35.089982">
<ele>455</ele>
<time>2020-12-02T01:56:56Z</time></trkpt>
<trkpt lat="31.750753" lon="35.089626">
<ele>454</ele>
<time>2020-12-02T01:57:03Z</time></trkpt>
<trkpt lat="31.750804" lon="35.08945">
<ele>454</ele>
<time>2020-12-02T01:57:06Z</time></trkpt>
<trkpt lat="31.750844" lon="35.089216">
<ele>454</ele>
<time>2020-12-02T01:57:10Z</time></trkpt>
<trkpt lat="31.750863" lon="35.088812">
<ele>454</ele>
<time>2020-12-02T01:57:17Z</time></trkpt>
<trkpt lat="31.750833" lon="35.088502">
<ele>453</ele>
<time>2020-12-02T01:57:23Z</time></trkpt>
<trkpt lat="31.750809" lon="35.088425">
<ele>453</ele>
<time>2020-12-02T01:57:24Z</time></trkpt>
<trkpt lat="31.750748" lon="35.088323">
<ele>452</ele>
<time>2020-12-02T01:57:26Z</time></trkpt>
<trkpt lat="31.750594" lon="35.088137">
<ele>451</ele>
<time>2020-12-02T01:57:30Z</time></trkpt>
<trkpt lat="31.750425" lon="35.087866">
<ele>450</ele>
<time>2020-12-02T01:57:36Z</time></trkpt>
<trkpt lat="31.750425" lon="35.087866">
<ele>450</ele>
<time>2020-12-02T01:57:36Z</time></trkpt>
<trkpt lat="31.750213" lon="35.087496">
<ele>448</ele>
<time>2020-12-02T01:57:44Z</time></trkpt>
<trkpt lat="31.750053" lon="35.087123">
<ele>446</ele>
<time>2020-12-02T01:57:51Z</time></trkpt>
<trkpt lat="31.749818" lon="35.086694">
<ele>446</ele>
<time>2020-12-02T01:58:00Z</time></trkpt>
<trkpt lat="31.749758" lon="35.086531">
<ele>446</ele>
<time>2020-12-02T01:58:03Z</time></trkpt>
<trkpt lat="31.749744" lon="35.086439">
<ele>445</ele>
<time>2020-12-02T01:58:04Z</time></trkpt>
<trkpt lat="31.749762" lon="35.086297">
<ele>445</ele>
<time>2020-12-02T01:58:07Z</time></trkpt>
<trkpt lat="31.749827" lon="35.086149">
<ele>445</ele>
<time>2020-12-02T01:58:10Z</time></trkpt>
<trkpt lat="31.749899" lon="35.086059">
<ele>445</ele>
<time>2020-12-02T01:58:12Z</time></trkpt>
<trkpt lat="31.750264" lon="35.085726">
<ele>447</ele>
<time>2020-12-02T01:58:21Z</time></trkpt>
<trkpt lat="31.750264" lon="35.085726">
<ele>447</ele>
<time>2020-12-02T01:58:21Z</time></trkpt>
<trkpt lat="31.750425" lon="35.085599">
<ele>448</ele>
<time>2020-12-02T01:58:25Z</time></trkpt>
<trkpt lat="31.750515" lon="35.085555">
<ele>448</ele>
<time>2020-12-02T01:58:27Z</time></trkpt>
<trkpt lat="31.750635" lon="35.085539">
<ele>448</ele>
<time>2020-12-02T01:58:29Z</time></trkpt>
<trkpt lat="31.751669" lon="35.085639">
<ele>452</ele>
<time>2020-12-02T01:58:50Z</time></trkpt>
<trkpt lat="31.751849" lon="35.08564">
<ele>451</ele>
<time>2020-12-02T01:58:54Z</time></trkpt>
<trkpt lat="31.752201" lon="35.085596">
<ele>449</ele>
<time>2020-12-02T01:59:01Z</time></trkpt>
<trkpt lat="31.752884" lon="35.085595">
<ele>448</ele>
<time>2020-12-02T01:59:14Z</time></trkpt>
<trkpt lat="31.753137" lon="35.085645">
<ele>447</ele>
<time>2020-12-02T01:59:19Z</time></trkpt>
<trkpt lat="31.753258" lon="35.08571">
<ele>445</ele>
<time>2020-12-02T01:59:22Z</time></trkpt>
<trkpt lat="31.753346" lon="35.085783">
<ele>443</ele>
<time>2020-12-02T01:59:24Z</time></trkpt>
<trkpt lat="31.753453" lon="35.085922">
<ele>445</ele>
<time>2020-12-02T01:59:27Z</time></trkpt>
<trkpt lat="31.753515" lon="35.086047">
<ele>447</ele>
<time>2020-12-02T01:59:30Z</time></trkpt>
<trkpt lat="31.753718" lon="35.086819">
<ele>450</ele>
<time>2020-12-02T01:59:44Z</time></trkpt>
<trkpt lat="31.75374" lon="35.086965">
<ele>450</ele>
<time>2020-12-02T01:59:46Z</time></trkpt>
<trkpt lat="31.75374" lon="35.086965">
<ele>450</ele>
<time>2020-12-02T01:59:46Z</time></trkpt>
<trkpt lat="31.753894" lon="35.087735">
<ele>450</ele>
<time>2020-12-02T02:00:00Z</time></trkpt>
<trkpt lat="31.753982" lon="35.087986">
<ele>451</ele>
<time>2020-12-02T02:00:04Z</time></trkpt>
<trkpt lat="31.754102" lon="35.088216">
<ele>447</ele>
<time>2020-12-02T02:00:09Z</time></trkpt>
<trkpt lat="31.754281" lon="35.088461">
<ele>449</ele>
<time>2020-12-02T02:00:14Z</time></trkpt>
<trkpt lat="31.754429" lon="35.088594">
<ele>451</ele>
<time>2020-12-02T02:00:18Z</time></trkpt>
<trkpt lat="31.75484" lon="35.088819">
<ele>447</ele>
<time>2020-12-02T02:00:27Z</time></trkpt>
<trkpt lat="31.755273" lon="35.089">
<ele>442</ele>
<time>2020-12-02T02:00:36Z</time></trkpt>
<trkpt lat="31.755273" lon="35.089">
<ele>442</ele>
<time>2020-12-02T02:00:36Z</time></trkpt>
<trkpt lat="31.755316" lon="35.08901">
<ele>442</ele>
<time>2020-12-02T02:00:37Z</time></trkpt>
<trkpt lat="31.755642" lon="35.088974">
<ele>440</ele>
<time>2020-12-02T02:00:44Z</time></trkpt>
<trkpt lat="31.755735" lon="35.088993">
<ele>439</ele>
<time>2020-12-02T02:00:46Z</time></trkpt>
<trkpt lat="31.755805" lon="35.089034">
<ele>438</ele>
<time>2020-12-02T02:00:47Z</time></trkpt>
<trkpt lat="31.756078" lon="35.089283">
<ele>437</ele>
<time>2020-12-02T02:00:54Z</time></trkpt>
<trkpt lat="31.756373" lon="35.089519">
<ele>441</ele>
<time>2020-12-02T02:01:01Z</time></trkpt>
<trkpt lat="31.75657" lon="35.089609">
<ele>441</ele>
<time>2020-12-02T02:01:06Z</time></trkpt>
<trkpt lat="31.756691" lon="35.089636">
<ele>440</ele>
<time>2020-12-02T02:01:08Z</time></trkpt>
<trkpt lat="31.757046" lon="35.089625">
<ele>437</ele>
<time>2020-12-02T02:01:15Z</time></trkpt>
<trkpt lat="31.757181" lon="35.089585">
<ele>435</ele>
<time>2020-12-02T02:01:18Z</time></trkpt>
<trkpt lat="31.757245" lon="35.089553">
<ele>434</ele>
<time>2020-12-02T02:01:19Z</time></trkpt>
<trkpt lat="31.757468" lon="35.089383">
<ele>429</ele>
<time>2020-12-02T02:01:25Z</time></trkpt>
<trkpt lat="31.757556" lon="35.089334">
<ele>428</ele>
<time>2020-12-02T02:01:27Z</time></trkpt>
<trkpt lat="31.757716" lon="35.089281">
<ele>426</ele>
<time>2020-12-02T02:01:30Z</time></trkpt>
<trkpt lat="31.75802" lon="35.08923">
<ele>423</ele>
<time>2020-12-02T02:01:36Z</time></trkpt>
<trkpt lat="31.75818" lon="35.089245">
<ele>422</ele>
<time>2020-12-02T02:01:39Z</time></trkpt>
<trkpt lat="31.758133" lon="35.089554">
<ele>425</ele>
<time>2020-12-02T02:01:45Z</time></trkpt>
<trkpt lat="31.758205" lon="35.089584">
<ele>424</ele>
<time>2020-12-02T02:01:46Z</time></trkpt>
<trkpt lat="31.758256" lon="35.08956">
<ele>423</ele>
<time>2020-12-02T02:01:47Z</time></trkpt>
<trkpt lat="31.758277" lon="35.089515">
<ele>423</ele>
<time>2020-12-02T02:01:48Z</time></trkpt>
</trkseg>
</trk>
</gpx>